<?xml version="1.0" encoding="UTF-8" standalone="no" ?>
<gpx xmlns="http://www.topografix.com/GPX/1/1" xmlns:xsi="http://www.w3.org/2001/XMLSchema-instance" xsi:schemaLocation="http://www.topografix.com/GPX/1/1 http://www.topografix.com/GPX/1/1/gpx.xsd" version="1.1" creator="VisuGPX - https://www.visugpx.com">
  <metadata>
    <name>revel-col des mouilles-revel</name>
    <desc><![CDATA[
Ouil]]></desc>
  </metadata>
  <trk>
    <name><![CDATA[2020-10-13 13:05:54]]></name>
    <desc><![CDATA[Ouil]]></desc>
    <extensions>
      <line xmlns="http://www.topografix.com/GPX/gpx_style/0/2">
        <color>0000FF</color>
        <opacity>0.59</opacity>
        <width>6.0</width>
      </line>
    </extensions>
    <trkseg>
      <trkpt lat="45.18294" lon="5.87654">
        <ele>699.06</ele>
        <time>2020-10-13T11:09:38.000Z</time>
      </trkpt>
      <trkpt lat="45.1829" lon="5.87676">
        <ele>706.38</ele>
        <time>2020-10-13T11:09:43.000Z</time>
      </trkpt>
      <trkpt lat="45.18287" lon="5.87692">
        <ele>711.76</ele>
        <time>2020-10-13T11:09:48.000Z</time>
      </trkpt>
      <trkpt lat="45.18287" lon="5.8771">
        <ele>713.81</ele>
        <time>2020-10-13T11:09:53.000Z</time>
      </trkpt>
      <trkpt lat="45.18282" lon="5.87731">
        <ele>714.54</ele>
        <time>2020-10-13T11:09:58.000Z</time>
      </trkpt>
      <trkpt lat="45.18276" lon="5.87754">
        <ele>717.17</ele>
        <time>2020-10-13T11:10:03.000Z</time>
      </trkpt>
      <trkpt lat="45.18275" lon="5.87768">
        <ele>721.01</ele>
        <time>2020-10-13T11:10:08.000Z</time>
      </trkpt>
      <trkpt lat="45.18273" lon="5.87785">
        <ele>721.92</ele>
        <time>2020-10-13T11:10:13.000Z</time>
      </trkpt>
      <trkpt lat="45.18269" lon="5.87811">
        <ele>726.08</ele>
        <time>2020-10-13T11:10:18.000Z</time>
      </trkpt>
      <trkpt lat="45.18262" lon="5.87837">
        <ele>725.49</ele>
        <time>2020-10-13T11:10:23.000Z</time>
      </trkpt>
      <trkpt lat="45.18258" lon="5.87865">
        <ele>728.79</ele>
        <time>2020-10-13T11:10:28.000Z</time>
      </trkpt>
      <trkpt lat="45.18251" lon="5.87893">
        <ele>735.03</ele>
        <time>2020-10-13T11:10:33.000Z</time>
      </trkpt>
      <trkpt lat="45.18253" lon="5.87921">
        <ele>738.7</ele>
        <time>2020-10-13T11:10:38.000Z</time>
      </trkpt>
      <trkpt lat="45.18258" lon="5.87945">
        <ele>737.14</ele>
        <time>2020-10-13T11:10:43.000Z</time>
      </trkpt>
      <trkpt lat="45.18256" lon="5.87983">
        <ele>738.61</ele>
        <time>2020-10-13T11:10:48.000Z</time>
      </trkpt>
      <trkpt lat="45.18243" lon="5.87995">
        <ele>740.65</ele>
        <time>2020-10-13T11:10:53.000Z</time>
      </trkpt>
      <trkpt lat="45.18239" lon="5.88018">
        <ele>745.79</ele>
        <time>2020-10-13T11:10:58.000Z</time>
      </trkpt>
      <trkpt lat="45.18254" lon="5.88015">
        <ele>749.39</ele>
        <time>2020-10-13T11:11:03.000Z</time>
      </trkpt>
      <trkpt lat="45.18266" lon="5.87981">
        <ele>748.93</ele>
        <time>2020-10-13T11:11:08.000Z</time>
      </trkpt>
      <trkpt lat="45.18283" lon="5.87954">
        <ele>749.43</ele>
        <time>2020-10-13T11:11:13.000Z</time>
      </trkpt>
      <trkpt lat="45.18297" lon="5.8794">
        <ele>749.4</ele>
        <time>2020-10-13T11:11:18.000Z</time>
      </trkpt>
      <trkpt lat="45.18309" lon="5.87923">
        <ele>750</ele>
        <time>2020-10-13T11:11:23.000Z</time>
      </trkpt>
      <trkpt lat="45.18325" lon="5.87906">
        <ele>753.11</ele>
        <time>2020-10-13T11:11:28.000Z</time>
      </trkpt>
      <trkpt lat="45.1834" lon="5.87889">
        <ele>755.69</ele>
        <time>2020-10-13T11:11:33.000Z</time>
      </trkpt>
      <trkpt lat="45.18356" lon="5.87874">
        <ele>756.29</ele>
        <time>2020-10-13T11:11:38.000Z</time>
      </trkpt>
      <trkpt lat="45.18373" lon="5.87857">
        <ele>758.99</ele>
        <time>2020-10-13T11:11:43.000Z</time>
      </trkpt>
      <trkpt lat="45.18389" lon="5.8784">
        <ele>760.13</ele>
        <time>2020-10-13T11:11:48.000Z</time>
      </trkpt>
      <trkpt lat="45.18404" lon="5.87823">
        <ele>761.62</ele>
        <time>2020-10-13T11:11:53.000Z</time>
      </trkpt>
      <trkpt lat="45.18421" lon="5.87808">
        <ele>765.18</ele>
        <time>2020-10-13T11:11:58.000Z</time>
      </trkpt>
      <trkpt lat="45.18438" lon="5.87796">
        <ele>766.14</ele>
        <time>2020-10-13T11:12:03.000Z</time>
      </trkpt>
      <trkpt lat="45.18456" lon="5.87792">
        <ele>766.94</ele>
        <time>2020-10-13T11:12:08.000Z</time>
      </trkpt>
      <trkpt lat="45.18474" lon="5.87793">
        <ele>770.25</ele>
        <time>2020-10-13T11:12:13.000Z</time>
      </trkpt>
      <trkpt lat="45.18494" lon="5.87799">
        <ele>772.35</ele>
        <time>2020-10-13T11:12:18.000Z</time>
      </trkpt>
      <trkpt lat="45.18513" lon="5.87811">
        <ele>777.85</ele>
        <time>2020-10-13T11:12:23.000Z</time>
      </trkpt>
      <trkpt lat="45.18532" lon="5.87824">
        <ele>781.34</ele>
        <time>2020-10-13T11:12:28.000Z</time>
      </trkpt>
      <trkpt lat="45.18549" lon="5.87834">
        <ele>782.22</ele>
        <time>2020-10-13T11:12:33.000Z</time>
      </trkpt>
      <trkpt lat="45.18567" lon="5.87844">
        <ele>786.53</ele>
        <time>2020-10-13T11:12:38.000Z</time>
      </trkpt>
      <trkpt lat="45.18584" lon="5.87853">
        <ele>786.61</ele>
        <time>2020-10-13T11:12:43.000Z</time>
      </trkpt>
      <trkpt lat="45.186" lon="5.87862">
        <ele>787.68</ele>
        <time>2020-10-13T11:12:48.000Z</time>
      </trkpt>
      <trkpt lat="45.18616" lon="5.87873">
        <ele>791.19</ele>
        <time>2020-10-13T11:12:53.000Z</time>
      </trkpt>
      <trkpt lat="45.18631" lon="5.87887">
        <ele>792.53</ele>
        <time>2020-10-13T11:12:58.000Z</time>
      </trkpt>
      <trkpt lat="45.18647" lon="5.87905">
        <ele>797.08</ele>
        <time>2020-10-13T11:13:03.000Z</time>
      </trkpt>
      <trkpt lat="45.18661" lon="5.87924">
        <ele>798.23</ele>
        <time>2020-10-13T11:13:08.000Z</time>
      </trkpt>
      <trkpt lat="45.18674" lon="5.87945">
        <ele>795.45</ele>
        <time>2020-10-13T11:13:13.000Z</time>
      </trkpt>
      <trkpt lat="45.18684" lon="5.87969">
        <ele>797.05</ele>
        <time>2020-10-13T11:13:18.000Z</time>
      </trkpt>
      <trkpt lat="45.18691" lon="5.87994">
        <ele>799.27</ele>
        <time>2020-10-13T11:13:23.000Z</time>
      </trkpt>
      <trkpt lat="45.18698" lon="5.88018">
        <ele>801.97</ele>
        <time>2020-10-13T11:13:28.000Z</time>
      </trkpt>
      <trkpt lat="45.18703" lon="5.88043">
        <ele>803.49</ele>
        <time>2020-10-13T11:13:33.000Z</time>
      </trkpt>
      <trkpt lat="45.1871" lon="5.88069">
        <ele>809.87</ele>
        <time>2020-10-13T11:13:38.000Z</time>
      </trkpt>
      <trkpt lat="45.18716" lon="5.88095">
        <ele>812.62</ele>
        <time>2020-10-13T11:13:43.000Z</time>
      </trkpt>
      <trkpt lat="45.18713" lon="5.8812">
        <ele>814.6</ele>
        <time>2020-10-13T11:13:48.000Z</time>
      </trkpt>
      <trkpt lat="45.1871" lon="5.88145">
        <ele>815.46</ele>
        <time>2020-10-13T11:13:53.000Z</time>
      </trkpt>
      <trkpt lat="45.18707" lon="5.88175">
        <ele>817.2</ele>
        <time>2020-10-13T11:13:58.000Z</time>
      </trkpt>
      <trkpt lat="45.18707" lon="5.88201">
        <ele>818.21</ele>
        <time>2020-10-13T11:14:03.000Z</time>
      </trkpt>
      <trkpt lat="45.18704" lon="5.8823">
        <ele>822.18</ele>
        <time>2020-10-13T11:14:08.000Z</time>
      </trkpt>
      <trkpt lat="45.18707" lon="5.88259">
        <ele>824.59</ele>
        <time>2020-10-13T11:14:13.000Z</time>
      </trkpt>
      <trkpt lat="45.18716" lon="5.88286">
        <ele>826.76</ele>
        <time>2020-10-13T11:14:18.000Z</time>
      </trkpt>
      <trkpt lat="45.18732" lon="5.88308">
        <ele>828.17</ele>
        <time>2020-10-13T11:14:23.000Z</time>
      </trkpt>
      <trkpt lat="45.18747" lon="5.88339">
        <ele>826.26</ele>
        <time>2020-10-13T11:14:28.000Z</time>
      </trkpt>
      <trkpt lat="45.18762" lon="5.88366">
        <ele>824.79</ele>
        <time>2020-10-13T11:14:33.000Z</time>
      </trkpt>
      <trkpt lat="45.18779" lon="5.884">
        <ele>825.3</ele>
        <time>2020-10-13T11:14:38.000Z</time>
      </trkpt>
      <trkpt lat="45.18797" lon="5.88429">
        <ele>826.05</ele>
        <time>2020-10-13T11:14:43.000Z</time>
      </trkpt>
      <trkpt lat="45.18821" lon="5.88455">
        <ele>828.09</ele>
        <time>2020-10-13T11:14:48.000Z</time>
      </trkpt>
      <trkpt lat="45.18845" lon="5.88475">
        <ele>830.45</ele>
        <time>2020-10-13T11:14:53.000Z</time>
      </trkpt>
      <trkpt lat="45.18877" lon="5.88477">
        <ele>829.97</ele>
        <time>2020-10-13T11:14:58.000Z</time>
      </trkpt>
      <trkpt lat="45.18904" lon="5.88469">
        <ele>826.03</ele>
        <time>2020-10-13T11:15:03.000Z</time>
      </trkpt>
      <trkpt lat="45.18936" lon="5.88464">
        <ele>826.7</ele>
        <time>2020-10-13T11:15:08.000Z</time>
      </trkpt>
      <trkpt lat="45.18966" lon="5.88461">
        <ele>823.51</ele>
        <time>2020-10-13T11:15:13.000Z</time>
      </trkpt>
      <trkpt lat="45.18999" lon="5.88457">
        <ele>823.96</ele>
        <time>2020-10-13T11:15:18.000Z</time>
      </trkpt>
      <trkpt lat="45.19026" lon="5.88452">
        <ele>827.25</ele>
        <time>2020-10-13T11:15:23.000Z</time>
      </trkpt>
      <trkpt lat="45.19047" lon="5.88451">
        <ele>829.21</ele>
        <time>2020-10-13T11:15:28.000Z</time>
      </trkpt>
      <trkpt lat="45.19072" lon="5.88451">
        <ele>829.1</ele>
        <time>2020-10-13T11:15:33.000Z</time>
      </trkpt>
      <trkpt lat="45.19089" lon="5.88457">
        <ele>830.91</ele>
        <time>2020-10-13T11:15:38.000Z</time>
      </trkpt>
      <trkpt lat="45.19113" lon="5.8846">
        <ele>830.34</ele>
        <time>2020-10-13T11:15:43.000Z</time>
      </trkpt>
      <trkpt lat="45.19134" lon="5.88461">
        <ele>829.67</ele>
        <time>2020-10-13T11:15:48.000Z</time>
      </trkpt>
      <trkpt lat="45.19158" lon="5.88464">
        <ele>832.64</ele>
        <time>2020-10-13T11:15:53.000Z</time>
      </trkpt>
      <trkpt lat="45.1918" lon="5.88469">
        <ele>832.99</ele>
        <time>2020-10-13T11:15:58.000Z</time>
      </trkpt>
      <trkpt lat="45.192" lon="5.88469">
        <ele>836</ele>
        <time>2020-10-13T11:16:03.000Z</time>
      </trkpt>
      <trkpt lat="45.1922" lon="5.88463">
        <ele>840.68</ele>
        <time>2020-10-13T11:16:08.000Z</time>
      </trkpt>
      <trkpt lat="45.19241" lon="5.88457">
        <ele>844.51</ele>
        <time>2020-10-13T11:16:13.000Z</time>
      </trkpt>
      <trkpt lat="45.19261" lon="5.8845">
        <ele>845.56</ele>
        <time>2020-10-13T11:16:18.000Z</time>
      </trkpt>
      <trkpt lat="45.19282" lon="5.88443">
        <ele>848.54</ele>
        <time>2020-10-13T11:16:23.000Z</time>
      </trkpt>
      <trkpt lat="45.19304" lon="5.88439">
        <ele>847.52</ele>
        <time>2020-10-13T11:16:28.000Z</time>
      </trkpt>
      <trkpt lat="45.19323" lon="5.88436">
        <ele>849.81</ele>
        <time>2020-10-13T11:16:33.000Z</time>
      </trkpt>
      <trkpt lat="45.19343" lon="5.88428">
        <ele>852.61</ele>
        <time>2020-10-13T11:16:38.000Z</time>
      </trkpt>
      <trkpt lat="45.1936" lon="5.88408">
        <ele>852.15</ele>
        <time>2020-10-13T11:16:43.000Z</time>
      </trkpt>
      <trkpt lat="45.1937" lon="5.88383">
        <ele>856.16</ele>
        <time>2020-10-13T11:16:48.000Z</time>
      </trkpt>
      <trkpt lat="45.19377" lon="5.88355">
        <ele>857.28</ele>
        <time>2020-10-13T11:16:53.000Z</time>
      </trkpt>
      <trkpt lat="45.19382" lon="5.88328">
        <ele>859.3</ele>
        <time>2020-10-13T11:16:58.000Z</time>
      </trkpt>
      <trkpt lat="45.19388" lon="5.883">
        <ele>861.34</ele>
        <time>2020-10-13T11:17:03.000Z</time>
      </trkpt>
      <trkpt lat="45.19396" lon="5.88272">
        <ele>864.84</ele>
        <time>2020-10-13T11:17:08.000Z</time>
      </trkpt>
      <trkpt lat="45.19393" lon="5.88243">
        <ele>868.28</ele>
        <time>2020-10-13T11:17:13.000Z</time>
      </trkpt>
      <trkpt lat="45.19395" lon="5.88213">
        <ele>867.62</ele>
        <time>2020-10-13T11:17:18.000Z</time>
      </trkpt>
      <trkpt lat="45.1941" lon="5.88196">
        <ele>872.15</ele>
        <time>2020-10-13T11:17:23.000Z</time>
      </trkpt>
      <trkpt lat="45.1942" lon="5.88165">
        <ele>872.63</ele>
        <time>2020-10-13T11:17:28.000Z</time>
      </trkpt>
      <trkpt lat="45.19426" lon="5.88138">
        <ele>871.83</ele>
        <time>2020-10-13T11:17:33.000Z</time>
      </trkpt>
      <trkpt lat="45.19429" lon="5.88108">
        <ele>874.1</ele>
        <time>2020-10-13T11:17:38.000Z</time>
      </trkpt>
      <trkpt lat="45.19429" lon="5.88072">
        <ele>877.6</ele>
        <time>2020-10-13T11:17:43.000Z</time>
      </trkpt>
      <trkpt lat="45.19423" lon="5.88034">
        <ele>876.93</ele>
        <time>2020-10-13T11:17:48.000Z</time>
      </trkpt>
      <trkpt lat="45.19415" lon="5.88012">
        <ele>875.93</ele>
        <time>2020-10-13T11:17:53.000Z</time>
      </trkpt>
      <trkpt lat="45.19396" lon="5.87986">
        <ele>877.04</ele>
        <time>2020-10-13T11:17:58.000Z</time>
      </trkpt>
      <trkpt lat="45.1938" lon="5.87963">
        <ele>877.9</ele>
        <time>2020-10-13T11:18:03.000Z</time>
      </trkpt>
      <trkpt lat="45.19364" lon="5.87936">
        <ele>876.72</ele>
        <time>2020-10-13T11:18:08.000Z</time>
      </trkpt>
      <trkpt lat="45.19354" lon="5.87906">
        <ele>880.48</ele>
        <time>2020-10-13T11:18:13.000Z</time>
      </trkpt>
      <trkpt lat="45.19348" lon="5.87874">
        <ele>884.04</ele>
        <time>2020-10-13T11:18:18.000Z</time>
      </trkpt>
      <trkpt lat="45.19347" lon="5.87843">
        <ele>884.68</ele>
        <time>2020-10-13T11:18:23.000Z</time>
      </trkpt>
      <trkpt lat="45.19347" lon="5.87807">
        <ele>884.51</ele>
        <time>2020-10-13T11:18:28.000Z</time>
      </trkpt>
      <trkpt lat="45.19346" lon="5.87772">
        <ele>883.98</ele>
        <time>2020-10-13T11:18:33.000Z</time>
      </trkpt>
      <trkpt lat="45.19349" lon="5.87735">
        <ele>886.93</ele>
        <time>2020-10-13T11:18:38.000Z</time>
      </trkpt>
      <trkpt lat="45.19357" lon="5.87706">
        <ele>888.88</ele>
        <time>2020-10-13T11:18:43.000Z</time>
      </trkpt>
      <trkpt lat="45.19371" lon="5.87681">
        <ele>889.13</ele>
        <time>2020-10-13T11:18:48.000Z</time>
      </trkpt>
      <trkpt lat="45.19392" lon="5.87665">
        <ele>887.91</ele>
        <time>2020-10-13T11:18:53.000Z</time>
      </trkpt>
      <trkpt lat="45.19419" lon="5.87661">
        <ele>884.74</ele>
        <time>2020-10-13T11:18:58.000Z</time>
      </trkpt>
      <trkpt lat="45.19447" lon="5.87662">
        <ele>886.38</ele>
        <time>2020-10-13T11:19:03.000Z</time>
      </trkpt>
      <trkpt lat="45.19481" lon="5.87663">
        <ele>887.83</ele>
        <time>2020-10-13T11:19:08.000Z</time>
      </trkpt>
      <trkpt lat="45.19519" lon="5.87663">
        <ele>881.54</ele>
        <time>2020-10-13T11:19:13.000Z</time>
      </trkpt>
      <trkpt lat="45.1956" lon="5.87636">
        <ele>879.57</ele>
        <time>2020-10-13T11:19:18.000Z</time>
      </trkpt>
      <trkpt lat="45.196" lon="5.87591">
        <ele>880.22</ele>
        <time>2020-10-13T11:19:23.000Z</time>
      </trkpt>
      <trkpt lat="45.19642" lon="5.87545">
        <ele>878.17</ele>
        <time>2020-10-13T11:19:28.000Z</time>
      </trkpt>
      <trkpt lat="45.19675" lon="5.87487">
        <ele>879.35</ele>
        <time>2020-10-13T11:19:33.000Z</time>
      </trkpt>
      <trkpt lat="45.19686" lon="5.87419">
        <ele>881.42</ele>
        <time>2020-10-13T11:19:38.000Z</time>
      </trkpt>
      <trkpt lat="45.19681" lon="5.87348">
        <ele>877.85</ele>
        <time>2020-10-13T11:19:43.000Z</time>
      </trkpt>
      <trkpt lat="45.19676" lon="5.8728">
        <ele>877.41</ele>
        <time>2020-10-13T11:19:48.000Z</time>
      </trkpt>
      <trkpt lat="45.1967" lon="5.87231">
        <ele>871.14</ele>
        <time>2020-10-13T11:19:53.000Z</time>
      </trkpt>
      <trkpt lat="45.19654" lon="5.87191">
        <ele>866.94</ele>
        <time>2020-10-13T11:19:58.000Z</time>
      </trkpt>
      <trkpt lat="45.19634" lon="5.8716">
        <ele>867.45</ele>
        <time>2020-10-13T11:20:03.000Z</time>
      </trkpt>
      <trkpt lat="45.19617" lon="5.87135">
        <ele>870.81</ele>
        <time>2020-10-13T11:20:08.000Z</time>
      </trkpt>
      <trkpt lat="45.19596" lon="5.87104">
        <ele>874.08</ele>
        <time>2020-10-13T11:20:13.000Z</time>
      </trkpt>
      <trkpt lat="45.19575" lon="5.87074">
        <ele>871.07</ele>
        <time>2020-10-13T11:20:18.000Z</time>
      </trkpt>
      <trkpt lat="45.19554" lon="5.87042">
        <ele>869.5</ele>
        <time>2020-10-13T11:20:23.000Z</time>
      </trkpt>
      <trkpt lat="45.1954" lon="5.86999">
        <ele>867.85</ele>
        <time>2020-10-13T11:20:28.000Z</time>
      </trkpt>
      <trkpt lat="45.19531" lon="5.8695">
        <ele>867.21</ele>
        <time>2020-10-13T11:20:33.000Z</time>
      </trkpt>
      <trkpt lat="45.19534" lon="5.86892">
        <ele>866.23</ele>
        <time>2020-10-13T11:20:38.000Z</time>
      </trkpt>
      <trkpt lat="45.19573" lon="5.86861">
        <ele>864.32</ele>
        <time>2020-10-13T11:20:43.000Z</time>
      </trkpt>
      <trkpt lat="45.19628" lon="5.86859">
        <ele>858.74</ele>
        <time>2020-10-13T11:20:48.000Z</time>
      </trkpt>
      <trkpt lat="45.19684" lon="5.86857">
        <ele>855.73</ele>
        <time>2020-10-13T11:20:53.000Z</time>
      </trkpt>
      <trkpt lat="45.19718" lon="5.86825">
        <ele>855.63</ele>
        <time>2020-10-13T11:20:58.000Z</time>
      </trkpt>
      <trkpt lat="45.19719" lon="5.86756">
        <ele>851.05</ele>
        <time>2020-10-13T11:21:03.000Z</time>
      </trkpt>
      <trkpt lat="45.19762" lon="5.8672">
        <ele>846.24</ele>
        <time>2020-10-13T11:21:08.000Z</time>
      </trkpt>
      <trkpt lat="45.19825" lon="5.86727">
        <ele>841.66</ele>
        <time>2020-10-13T11:21:13.000Z</time>
      </trkpt>
      <trkpt lat="45.19891" lon="5.86732">
        <ele>837.47</ele>
        <time>2020-10-13T11:21:18.000Z</time>
      </trkpt>
      <trkpt lat="45.1996" lon="5.86718">
        <ele>835.2</ele>
        <time>2020-10-13T11:21:23.000Z</time>
      </trkpt>
      <trkpt lat="45.20019" lon="5.8676">
        <ele>829.26</ele>
        <time>2020-10-13T11:21:28.000Z</time>
      </trkpt>
      <trkpt lat="45.20053" lon="5.8683">
        <ele>825.49</ele>
        <time>2020-10-13T11:21:33.000Z</time>
      </trkpt>
      <trkpt lat="45.20076" lon="5.86914">
        <ele>817.95</ele>
        <time>2020-10-13T11:21:38.000Z</time>
      </trkpt>
      <trkpt lat="45.20065" lon="5.87009">
        <ele>814.1</ele>
        <time>2020-10-13T11:21:43.000Z</time>
      </trkpt>
      <trkpt lat="45.20053" lon="5.87103">
        <ele>808.53</ele>
        <time>2020-10-13T11:21:48.000Z</time>
      </trkpt>
      <trkpt lat="45.2007" lon="5.8719">
        <ele>801.97</ele>
        <time>2020-10-13T11:21:53.000Z</time>
      </trkpt>
      <trkpt lat="45.20112" lon="5.87272">
        <ele>797.28</ele>
        <time>2020-10-13T11:21:58.000Z</time>
      </trkpt>
      <trkpt lat="45.20144" lon="5.87361">
        <ele>789.27</ele>
        <time>2020-10-13T11:22:03.000Z</time>
      </trkpt>
      <trkpt lat="45.20128" lon="5.87446">
        <ele>784.97</ele>
        <time>2020-10-13T11:22:08.000Z</time>
      </trkpt>
      <trkpt lat="45.20104" lon="5.87536">
        <ele>778.05</ele>
        <time>2020-10-13T11:22:13.000Z</time>
      </trkpt>
      <trkpt lat="45.2013" lon="5.87624">
        <ele>772.15</ele>
        <time>2020-10-13T11:22:18.000Z</time>
      </trkpt>
      <trkpt lat="45.20128" lon="5.87716">
        <ele>767.38</ele>
        <time>2020-10-13T11:22:23.000Z</time>
      </trkpt>
      <trkpt lat="45.20117" lon="5.87809">
        <ele>759.65</ele>
        <time>2020-10-13T11:22:28.000Z</time>
      </trkpt>
      <trkpt lat="45.20128" lon="5.87904">
        <ele>755.45</ele>
        <time>2020-10-13T11:22:33.000Z</time>
      </trkpt>
      <trkpt lat="45.20148" lon="5.87999">
        <ele>747.68</ele>
        <time>2020-10-13T11:22:38.000Z</time>
      </trkpt>
      <trkpt lat="45.20153" lon="5.88102">
        <ele>746.17</ele>
        <time>2020-10-13T11:22:43.000Z</time>
      </trkpt>
      <trkpt lat="45.2017" lon="5.8818">
        <ele>744.55</ele>
        <time>2020-10-13T11:22:48.000Z</time>
      </trkpt>
      <trkpt lat="45.20218" lon="5.88219">
        <ele>742.77</ele>
        <time>2020-10-13T11:22:53.000Z</time>
      </trkpt>
      <trkpt lat="45.20284" lon="5.88214">
        <ele>738.46</ele>
        <time>2020-10-13T11:22:58.000Z</time>
      </trkpt>
      <trkpt lat="45.20334" lon="5.88165">
        <ele>733.07</ele>
        <time>2020-10-13T11:23:03.000Z</time>
      </trkpt>
      <trkpt lat="45.20382" lon="5.88137">
        <ele>729.78</ele>
        <time>2020-10-13T11:23:08.000Z</time>
      </trkpt>
      <trkpt lat="45.20427" lon="5.88136">
        <ele>728.96</ele>
        <time>2020-10-13T11:23:13.000Z</time>
      </trkpt>
      <trkpt lat="45.2047" lon="5.88145">
        <ele>727.8</ele>
        <time>2020-10-13T11:23:18.000Z</time>
      </trkpt>
      <trkpt lat="45.20516" lon="5.88136">
        <ele>729.51</ele>
        <time>2020-10-13T11:23:23.000Z</time>
      </trkpt>
      <trkpt lat="45.20559" lon="5.88133">
        <ele>727.65</ele>
        <time>2020-10-13T11:23:28.000Z</time>
      </trkpt>
      <trkpt lat="45.20591" lon="5.88173">
        <ele>726.41</ele>
        <time>2020-10-13T11:23:33.000Z</time>
      </trkpt>
      <trkpt lat="45.20605" lon="5.88234">
        <ele>721.36</ele>
        <time>2020-10-13T11:23:38.000Z</time>
      </trkpt>
      <trkpt lat="45.20637" lon="5.88254">
        <ele>720.05</ele>
        <time>2020-10-13T11:23:43.000Z</time>
      </trkpt>
      <trkpt lat="45.20654" lon="5.88279">
        <ele>720.87</ele>
        <time>2020-10-13T11:23:48.000Z</time>
      </trkpt>
      <trkpt lat="45.20661" lon="5.88301">
        <ele>723.55</ele>
        <time>2020-10-13T11:23:53.000Z</time>
      </trkpt>
      <trkpt lat="45.20671" lon="5.88322">
        <ele>726.14</ele>
        <time>2020-10-13T11:23:58.000Z</time>
      </trkpt>
      <trkpt lat="45.20687" lon="5.8834">
        <ele>727.86</ele>
        <time>2020-10-13T11:24:03.000Z</time>
      </trkpt>
      <trkpt lat="45.2071" lon="5.88344">
        <ele>729.53</ele>
        <time>2020-10-13T11:24:08.000Z</time>
      </trkpt>
      <trkpt lat="45.20728" lon="5.8834">
        <ele>732.12</ele>
        <time>2020-10-13T11:24:13.000Z</time>
      </trkpt>
      <trkpt lat="45.20749" lon="5.88336">
        <ele>739.32</ele>
        <time>2020-10-13T11:24:18.000Z</time>
      </trkpt>
      <trkpt lat="45.20767" lon="5.88335">
        <ele>736.74</ele>
        <time>2020-10-13T11:24:23.000Z</time>
      </trkpt>
      <trkpt lat="45.20786" lon="5.88327">
        <ele>737.67</ele>
        <time>2020-10-13T11:24:28.000Z</time>
      </trkpt>
      <trkpt lat="45.2081" lon="5.8832">
        <ele>737.76</ele>
        <time>2020-10-13T11:24:33.000Z</time>
      </trkpt>
      <trkpt lat="45.20829" lon="5.88311">
        <ele>740.43</ele>
        <time>2020-10-13T11:24:38.000Z</time>
      </trkpt>
      <trkpt lat="45.20847" lon="5.88297">
        <ele>741.34</ele>
        <time>2020-10-13T11:24:43.000Z</time>
      </trkpt>
      <trkpt lat="45.20867" lon="5.88279">
        <ele>744.77</ele>
        <time>2020-10-13T11:24:48.000Z</time>
      </trkpt>
      <trkpt lat="45.20883" lon="5.88268">
        <ele>747.89</ele>
        <time>2020-10-13T11:24:53.000Z</time>
      </trkpt>
      <trkpt lat="45.20905" lon="5.88264">
        <ele>750.83</ele>
        <time>2020-10-13T11:24:58.000Z</time>
      </trkpt>
      <trkpt lat="45.20931" lon="5.88272">
        <ele>753.95</ele>
        <time>2020-10-13T11:25:03.000Z</time>
      </trkpt>
      <trkpt lat="45.20959" lon="5.88279">
        <ele>756.61</ele>
        <time>2020-10-13T11:25:08.000Z</time>
      </trkpt>
      <trkpt lat="45.20985" lon="5.88286">
        <ele>756.34</ele>
        <time>2020-10-13T11:25:13.000Z</time>
      </trkpt>
      <trkpt lat="45.21013" lon="5.88288">
        <ele>756.67</ele>
        <time>2020-10-13T11:25:18.000Z</time>
      </trkpt>
      <trkpt lat="45.21039" lon="5.88292">
        <ele>756.1</ele>
        <time>2020-10-13T11:25:23.000Z</time>
      </trkpt>
      <trkpt lat="45.2106" lon="5.88308">
        <ele>750.62</ele>
        <time>2020-10-13T11:25:28.000Z</time>
      </trkpt>
      <trkpt lat="45.21085" lon="5.88324">
        <ele>749.8</ele>
        <time>2020-10-13T11:25:33.000Z</time>
      </trkpt>
      <trkpt lat="45.21112" lon="5.88336">
        <ele>748.81</ele>
        <time>2020-10-13T11:25:38.000Z</time>
      </trkpt>
      <trkpt lat="45.21141" lon="5.88345">
        <ele>746.93</ele>
        <time>2020-10-13T11:25:43.000Z</time>
      </trkpt>
      <trkpt lat="45.21169" lon="5.88351">
        <ele>746.07</ele>
        <time>2020-10-13T11:25:48.000Z</time>
      </trkpt>
      <trkpt lat="45.21199" lon="5.88359">
        <ele>747.05</ele>
        <time>2020-10-13T11:25:53.000Z</time>
      </trkpt>
      <trkpt lat="45.21232" lon="5.88356">
        <ele>748.7</ele>
        <time>2020-10-13T11:25:58.000Z</time>
      </trkpt>
      <trkpt lat="45.21267" lon="5.88357">
        <ele>751.03</ele>
        <time>2020-10-13T11:26:03.000Z</time>
      </trkpt>
      <trkpt lat="45.213" lon="5.88351">
        <ele>752.36</ele>
        <time>2020-10-13T11:26:08.000Z</time>
      </trkpt>
      <trkpt lat="45.21334" lon="5.88338">
        <ele>754.62</ele>
        <time>2020-10-13T11:26:13.000Z</time>
      </trkpt>
      <trkpt lat="45.21364" lon="5.88321">
        <ele>754.47</ele>
        <time>2020-10-13T11:26:18.000Z</time>
      </trkpt>
      <trkpt lat="45.2139" lon="5.88314">
        <ele>756.16</ele>
        <time>2020-10-13T11:26:23.000Z</time>
      </trkpt>
      <trkpt lat="45.21411" lon="5.88333">
        <ele>754.07</ele>
        <time>2020-10-13T11:26:28.000Z</time>
      </trkpt>
      <trkpt lat="45.21421" lon="5.8837">
        <ele>756.45</ele>
        <time>2020-10-13T11:26:33.000Z</time>
      </trkpt>
      <trkpt lat="45.21419" lon="5.88408">
        <ele>754.77</ele>
        <time>2020-10-13T11:26:38.000Z</time>
      </trkpt>
      <trkpt lat="45.21422" lon="5.88445">
        <ele>757.19</ele>
        <time>2020-10-13T11:26:43.000Z</time>
      </trkpt>
      <trkpt lat="45.21432" lon="5.88482">
        <ele>763.97</ele>
        <time>2020-10-13T11:26:48.000Z</time>
      </trkpt>
      <trkpt lat="45.21441" lon="5.88517">
        <ele>762.74</ele>
        <time>2020-10-13T11:26:53.000Z</time>
      </trkpt>
      <trkpt lat="45.21448" lon="5.88547">
        <ele>760.97</ele>
        <time>2020-10-13T11:26:58.000Z</time>
      </trkpt>
      <trkpt lat="45.21455" lon="5.88569">
        <ele>761.39</ele>
        <time>2020-10-13T11:27:03.000Z</time>
      </trkpt>
      <trkpt lat="45.21469" lon="5.88602">
        <ele>763.97</ele>
        <time>2020-10-13T11:27:08.000Z</time>
      </trkpt>
      <trkpt lat="45.21484" lon="5.88632">
        <ele>764.37</ele>
        <time>2020-10-13T11:27:13.000Z</time>
      </trkpt>
      <trkpt lat="45.21491" lon="5.88656">
        <ele>767.31</ele>
        <time>2020-10-13T11:27:18.000Z</time>
      </trkpt>
      <trkpt lat="45.21503" lon="5.88683">
        <ele>768.34</ele>
        <time>2020-10-13T11:27:23.000Z</time>
      </trkpt>
      <trkpt lat="45.21521" lon="5.88709">
        <ele>770.76</ele>
        <time>2020-10-13T11:27:28.000Z</time>
      </trkpt>
      <trkpt lat="45.21536" lon="5.8873">
        <ele>771.82</ele>
        <time>2020-10-13T11:27:33.000Z</time>
      </trkpt>
      <trkpt lat="45.21555" lon="5.88747">
        <ele>772.94</ele>
        <time>2020-10-13T11:27:38.000Z</time>
      </trkpt>
      <trkpt lat="45.21569" lon="5.88773">
        <ele>773.28</ele>
        <time>2020-10-13T11:27:43.000Z</time>
      </trkpt>
      <trkpt lat="45.21583" lon="5.88795">
        <ele>776.93</ele>
        <time>2020-10-13T11:27:48.000Z</time>
      </trkpt>
      <trkpt lat="45.21601" lon="5.88817">
        <ele>775.1</ele>
        <time>2020-10-13T11:27:53.000Z</time>
      </trkpt>
      <trkpt lat="45.21624" lon="5.88834">
        <ele>777.25</ele>
        <time>2020-10-13T11:27:58.000Z</time>
      </trkpt>
      <trkpt lat="45.21645" lon="5.88846">
        <ele>781.82</ele>
        <time>2020-10-13T11:28:03.000Z</time>
      </trkpt>
      <trkpt lat="45.21667" lon="5.88858">
        <ele>779.42</ele>
        <time>2020-10-13T11:28:08.000Z</time>
      </trkpt>
      <trkpt lat="45.21685" lon="5.88857">
        <ele>783.1</ele>
        <time>2020-10-13T11:28:13.000Z</time>
      </trkpt>
      <trkpt lat="45.21693" lon="5.88863">
        <ele>791.58</ele>
        <time>2020-10-13T11:29:58.000Z</time>
      </trkpt>
      <trkpt lat="45.21704" lon="5.88894">
        <ele>791.78</ele>
        <time>2020-10-13T11:30:03.000Z</time>
      </trkpt>
      <trkpt lat="45.2168" lon="5.88921">
        <ele>790.03</ele>
        <time>2020-10-13T11:30:08.000Z</time>
      </trkpt>
      <trkpt lat="45.21648" lon="5.88946">
        <ele>788</ele>
        <time>2020-10-13T11:30:13.000Z</time>
      </trkpt>
      <trkpt lat="45.21613" lon="5.8898">
        <ele>787.18</ele>
        <time>2020-10-13T11:30:18.000Z</time>
      </trkpt>
      <trkpt lat="45.21577" lon="5.89004">
        <ele>786.53</ele>
        <time>2020-10-13T11:30:23.000Z</time>
      </trkpt>
      <trkpt lat="45.21529" lon="5.8902">
        <ele>788.31</ele>
        <time>2020-10-13T11:30:28.000Z</time>
      </trkpt>
      <trkpt lat="45.21482" lon="5.89048">
        <ele>787.1</ele>
        <time>2020-10-13T11:30:33.000Z</time>
      </trkpt>
      <trkpt lat="45.21436" lon="5.89075">
        <ele>784.86</ele>
        <time>2020-10-13T11:30:38.000Z</time>
      </trkpt>
      <trkpt lat="45.2139" lon="5.89097">
        <ele>784.3</ele>
        <time>2020-10-13T11:30:43.000Z</time>
      </trkpt>
      <trkpt lat="45.21345" lon="5.89124">
        <ele>782.2</ele>
        <time>2020-10-13T11:30:48.000Z</time>
      </trkpt>
      <trkpt lat="45.2129" lon="5.89155">
        <ele>776.98</ele>
        <time>2020-10-13T11:30:53.000Z</time>
      </trkpt>
      <trkpt lat="45.21238" lon="5.89174">
        <ele>771.43</ele>
        <time>2020-10-13T11:30:58.000Z</time>
      </trkpt>
      <trkpt lat="45.21203" lon="5.89232">
        <ele>767.09</ele>
        <time>2020-10-13T11:31:03.000Z</time>
      </trkpt>
      <trkpt lat="45.21163" lon="5.89285">
        <ele>763.45</ele>
        <time>2020-10-13T11:31:08.000Z</time>
      </trkpt>
      <trkpt lat="45.21116" lon="5.89324">
        <ele>761.75</ele>
        <time>2020-10-13T11:31:13.000Z</time>
      </trkpt>
      <trkpt lat="45.21081" lon="5.89382">
        <ele>759.4</ele>
        <time>2020-10-13T11:31:18.000Z</time>
      </trkpt>
      <trkpt lat="45.21051" lon="5.89436">
        <ele>756.35</ele>
        <time>2020-10-13T11:31:23.000Z</time>
      </trkpt>
      <trkpt lat="45.21035" lon="5.89497">
        <ele>757.31</ele>
        <time>2020-10-13T11:31:28.000Z</time>
      </trkpt>
      <trkpt lat="45.21029" lon="5.89562">
        <ele>756.17</ele>
        <time>2020-10-13T11:31:33.000Z</time>
      </trkpt>
      <trkpt lat="45.21026" lon="5.8962">
        <ele>754</ele>
        <time>2020-10-13T11:31:38.000Z</time>
      </trkpt>
      <trkpt lat="45.21009" lon="5.89669">
        <ele>753.96</ele>
        <time>2020-10-13T11:31:43.000Z</time>
      </trkpt>
      <trkpt lat="45.20981" lon="5.89711">
        <ele>749.92</ele>
        <time>2020-10-13T11:31:48.000Z</time>
      </trkpt>
      <trkpt lat="45.2097" lon="5.89769">
        <ele>747.21</ele>
        <time>2020-10-13T11:31:53.000Z</time>
      </trkpt>
      <trkpt lat="45.21004" lon="5.89779">
        <ele>745.48</ele>
        <time>2020-10-13T11:31:58.000Z</time>
      </trkpt>
      <trkpt lat="45.21046" lon="5.89767">
        <ele>746.76</ele>
        <time>2020-10-13T11:32:03.000Z</time>
      </trkpt>
      <trkpt lat="45.21078" lon="5.89769">
        <ele>749.17</ele>
        <time>2020-10-13T11:32:08.000Z</time>
      </trkpt>
      <trkpt lat="45.21098" lon="5.89786">
        <ele>751.49</ele>
        <time>2020-10-13T11:32:13.000Z</time>
      </trkpt>
      <trkpt lat="45.2112" lon="5.89783">
        <ele>754.15</ele>
        <time>2020-10-13T11:32:18.000Z</time>
      </trkpt>
      <trkpt lat="45.21148" lon="5.89765">
        <ele>754.94</ele>
        <time>2020-10-13T11:32:23.000Z</time>
      </trkpt>
      <trkpt lat="45.21186" lon="5.89767">
        <ele>752.24</ele>
        <time>2020-10-13T11:32:28.000Z</time>
      </trkpt>
      <trkpt lat="45.21226" lon="5.89793">
        <ele>750.26</ele>
        <time>2020-10-13T11:32:33.000Z</time>
      </trkpt>
      <trkpt lat="45.21265" lon="5.89792">
        <ele>748.78</ele>
        <time>2020-10-13T11:32:38.000Z</time>
      </trkpt>
      <trkpt lat="45.21311" lon="5.89783">
        <ele>748.02</ele>
        <time>2020-10-13T11:32:43.000Z</time>
      </trkpt>
      <trkpt lat="45.21357" lon="5.89755">
        <ele>747.21</ele>
        <time>2020-10-13T11:32:48.000Z</time>
      </trkpt>
      <trkpt lat="45.21401" lon="5.89733">
        <ele>744.21</ele>
        <time>2020-10-13T11:32:53.000Z</time>
      </trkpt>
      <trkpt lat="45.21447" lon="5.89729">
        <ele>741.07</ele>
        <time>2020-10-13T11:32:58.000Z</time>
      </trkpt>
      <trkpt lat="45.2149" lon="5.89745">
        <ele>738.5</ele>
        <time>2020-10-13T11:33:03.000Z</time>
      </trkpt>
      <trkpt lat="45.21531" lon="5.89767">
        <ele>737.76</ele>
        <time>2020-10-13T11:33:08.000Z</time>
      </trkpt>
      <trkpt lat="45.21575" lon="5.89799">
        <ele>736.13</ele>
        <time>2020-10-13T11:33:13.000Z</time>
      </trkpt>
      <trkpt lat="45.2162" lon="5.89827">
        <ele>736.41</ele>
        <time>2020-10-13T11:33:18.000Z</time>
      </trkpt>
      <trkpt lat="45.21659" lon="5.89861">
        <ele>735.8</ele>
        <time>2020-10-13T11:33:23.000Z</time>
      </trkpt>
      <trkpt lat="45.217" lon="5.89894">
        <ele>736.3</ele>
        <time>2020-10-13T11:33:28.000Z</time>
      </trkpt>
      <trkpt lat="45.2174" lon="5.89929">
        <ele>734.21</ele>
        <time>2020-10-13T11:33:33.000Z</time>
      </trkpt>
      <trkpt lat="45.21786" lon="5.89955">
        <ele>729.53</ele>
        <time>2020-10-13T11:33:38.000Z</time>
      </trkpt>
      <trkpt lat="45.21835" lon="5.89985">
        <ele>727.35</ele>
        <time>2020-10-13T11:33:43.000Z</time>
      </trkpt>
      <trkpt lat="45.21881" lon="5.90006">
        <ele>729.62</ele>
        <time>2020-10-13T11:33:48.000Z</time>
      </trkpt>
      <trkpt lat="45.21923" lon="5.90042">
        <ele>732.92</ele>
        <time>2020-10-13T11:33:53.000Z</time>
      </trkpt>
      <trkpt lat="45.21946" lon="5.90108">
        <ele>731.7</ele>
        <time>2020-10-13T11:33:58.000Z</time>
      </trkpt>
      <trkpt lat="45.21938" lon="5.90177">
        <ele>723.89</ele>
        <time>2020-10-13T11:34:03.000Z</time>
      </trkpt>
      <trkpt lat="45.21985" lon="5.90223">
        <ele>722.99</ele>
        <time>2020-10-13T11:34:08.000Z</time>
      </trkpt>
      <trkpt lat="45.22036" lon="5.90253">
        <ele>722.19</ele>
        <time>2020-10-13T11:34:13.000Z</time>
      </trkpt>
      <trkpt lat="45.22085" lon="5.90254">
        <ele>722.3</ele>
        <time>2020-10-13T11:34:18.000Z</time>
      </trkpt>
      <trkpt lat="45.22124" lon="5.90228">
        <ele>722.74</ele>
        <time>2020-10-13T11:34:23.000Z</time>
      </trkpt>
      <trkpt lat="45.22153" lon="5.902">
        <ele>725.12</ele>
        <time>2020-10-13T11:34:28.000Z</time>
      </trkpt>
      <trkpt lat="45.22177" lon="5.90174">
        <ele>724.28</ele>
        <time>2020-10-13T11:34:33.000Z</time>
      </trkpt>
      <trkpt lat="45.222" lon="5.90144">
        <ele>722.31</ele>
        <time>2020-10-13T11:34:38.000Z</time>
      </trkpt>
      <trkpt lat="45.22225" lon="5.90109">
        <ele>726.08</ele>
        <time>2020-10-13T11:34:43.000Z</time>
      </trkpt>
      <trkpt lat="45.22259" lon="5.9012">
        <ele>720.74</ele>
        <time>2020-10-13T11:34:48.000Z</time>
      </trkpt>
      <trkpt lat="45.22293" lon="5.90134">
        <ele>721.95</ele>
        <time>2020-10-13T11:34:53.000Z</time>
      </trkpt>
      <trkpt lat="45.2233" lon="5.90159">
        <ele>721.59</ele>
        <time>2020-10-13T11:34:58.000Z</time>
      </trkpt>
      <trkpt lat="45.22367" lon="5.9021">
        <ele>715.52</ele>
        <time>2020-10-13T11:35:03.000Z</time>
      </trkpt>
      <trkpt lat="45.22387" lon="5.90262">
        <ele>711.82</ele>
        <time>2020-10-13T11:35:08.000Z</time>
      </trkpt>
      <trkpt lat="45.22414" lon="5.90321">
        <ele>710.07</ele>
        <time>2020-10-13T11:35:13.000Z</time>
      </trkpt>
      <trkpt lat="45.2245" lon="5.90368">
        <ele>709.87</ele>
        <time>2020-10-13T11:35:18.000Z</time>
      </trkpt>
      <trkpt lat="45.22495" lon="5.90405">
        <ele>710.18</ele>
        <time>2020-10-13T11:35:23.000Z</time>
      </trkpt>
      <trkpt lat="45.22526" lon="5.90467">
        <ele>707.37</ele>
        <time>2020-10-13T11:35:28.000Z</time>
      </trkpt>
      <trkpt lat="45.22558" lon="5.90517">
        <ele>707.25</ele>
        <time>2020-10-13T11:35:33.000Z</time>
      </trkpt>
      <trkpt lat="45.22583" lon="5.9047">
        <ele>708.18</ele>
        <time>2020-10-13T11:35:38.000Z</time>
      </trkpt>
      <trkpt lat="45.22588" lon="5.90415">
        <ele>706.12</ele>
        <time>2020-10-13T11:35:43.000Z</time>
      </trkpt>
      <trkpt lat="45.22595" lon="5.90363">
        <ele>703.68</ele>
        <time>2020-10-13T11:35:48.000Z</time>
      </trkpt>
      <trkpt lat="45.22618" lon="5.90314">
        <ele>701.26</ele>
        <time>2020-10-13T11:35:53.000Z</time>
      </trkpt>
      <trkpt lat="45.22643" lon="5.90265">
        <ele>697.37</ele>
        <time>2020-10-13T11:35:58.000Z</time>
      </trkpt>
      <trkpt lat="45.22681" lon="5.90255">
        <ele>694.82</ele>
        <time>2020-10-13T11:36:03.000Z</time>
      </trkpt>
      <trkpt lat="45.22714" lon="5.90245">
        <ele>692.87</ele>
        <time>2020-10-13T11:36:08.000Z</time>
      </trkpt>
      <trkpt lat="45.22742" lon="5.90241">
        <ele>696.02</ele>
        <time>2020-10-13T11:36:13.000Z</time>
      </trkpt>
      <trkpt lat="45.22771" lon="5.90242">
        <ele>694.16</ele>
        <time>2020-10-13T11:36:18.000Z</time>
      </trkpt>
      <trkpt lat="45.22803" lon="5.90239">
        <ele>694.43</ele>
        <time>2020-10-13T11:36:23.000Z</time>
      </trkpt>
      <trkpt lat="45.22837" lon="5.90242">
        <ele>696.65</ele>
        <time>2020-10-13T11:36:28.000Z</time>
      </trkpt>
      <trkpt lat="45.22868" lon="5.9026">
        <ele>694.87</ele>
        <time>2020-10-13T11:36:33.000Z</time>
      </trkpt>
      <trkpt lat="45.22899" lon="5.90287">
        <ele>694.9</ele>
        <time>2020-10-13T11:36:38.000Z</time>
      </trkpt>
      <trkpt lat="45.22929" lon="5.90332">
        <ele>689.79</ele>
        <time>2020-10-13T11:36:43.000Z</time>
      </trkpt>
      <trkpt lat="45.2297" lon="5.90359">
        <ele>686.89</ele>
        <time>2020-10-13T11:36:48.000Z</time>
      </trkpt>
      <trkpt lat="45.23011" lon="5.90337">
        <ele>686.63</ele>
        <time>2020-10-13T11:36:53.000Z</time>
      </trkpt>
      <trkpt lat="45.23044" lon="5.90332">
        <ele>684.95</ele>
        <time>2020-10-13T11:36:58.000Z</time>
      </trkpt>
      <trkpt lat="45.23074" lon="5.90326">
        <ele>684</ele>
        <time>2020-10-13T11:37:03.000Z</time>
      </trkpt>
      <trkpt lat="45.23105" lon="5.90322">
        <ele>684.29</ele>
        <time>2020-10-13T11:37:08.000Z</time>
      </trkpt>
      <trkpt lat="45.23136" lon="5.90327">
        <ele>684.18</ele>
        <time>2020-10-13T11:37:13.000Z</time>
      </trkpt>
      <trkpt lat="45.2317" lon="5.90332">
        <ele>686.7</ele>
        <time>2020-10-13T11:37:18.000Z</time>
      </trkpt>
      <trkpt lat="45.23202" lon="5.90332">
        <ele>687.26</ele>
        <time>2020-10-13T11:37:23.000Z</time>
      </trkpt>
      <trkpt lat="45.23233" lon="5.90339">
        <ele>688.65</ele>
        <time>2020-10-13T11:37:28.000Z</time>
      </trkpt>
      <trkpt lat="45.23265" lon="5.9034">
        <ele>687.48</ele>
        <time>2020-10-13T11:37:33.000Z</time>
      </trkpt>
      <trkpt lat="45.23295" lon="5.90323">
        <ele>688.34</ele>
        <time>2020-10-13T11:37:38.000Z</time>
      </trkpt>
      <trkpt lat="45.23322" lon="5.9031">
        <ele>687.85</ele>
        <time>2020-10-13T11:37:43.000Z</time>
      </trkpt>
      <trkpt lat="45.23347" lon="5.90298">
        <ele>693.08</ele>
        <time>2020-10-13T11:37:48.000Z</time>
      </trkpt>
      <trkpt lat="45.23373" lon="5.90282">
        <ele>696.08</ele>
        <time>2020-10-13T11:37:53.000Z</time>
      </trkpt>
      <trkpt lat="45.234" lon="5.90269">
        <ele>694.51</ele>
        <time>2020-10-13T11:37:58.000Z</time>
      </trkpt>
      <trkpt lat="45.23426" lon="5.90259">
        <ele>694.65</ele>
        <time>2020-10-13T11:38:03.000Z</time>
      </trkpt>
      <trkpt lat="45.23454" lon="5.90259">
        <ele>694.02</ele>
        <time>2020-10-13T11:38:08.000Z</time>
      </trkpt>
      <trkpt lat="45.23476" lon="5.90285">
        <ele>695.81</ele>
        <time>2020-10-13T11:38:13.000Z</time>
      </trkpt>
      <trkpt lat="45.23493" lon="5.9032">
        <ele>697.56</ele>
        <time>2020-10-13T11:38:18.000Z</time>
      </trkpt>
      <trkpt lat="45.23495" lon="5.90359">
        <ele>697.99</ele>
        <time>2020-10-13T11:38:23.000Z</time>
      </trkpt>
      <trkpt lat="45.2349" lon="5.90399">
        <ele>697.12</ele>
        <time>2020-10-13T11:38:28.000Z</time>
      </trkpt>
      <trkpt lat="45.23483" lon="5.90441">
        <ele>697.24</ele>
        <time>2020-10-13T11:38:33.000Z</time>
      </trkpt>
      <trkpt lat="45.23477" lon="5.90487">
        <ele>696</ele>
        <time>2020-10-13T11:38:38.000Z</time>
      </trkpt>
      <trkpt lat="45.2347" lon="5.90535">
        <ele>697.08</ele>
        <time>2020-10-13T11:38:43.000Z</time>
      </trkpt>
      <trkpt lat="45.23457" lon="5.90583">
        <ele>694.55</ele>
        <time>2020-10-13T11:38:48.000Z</time>
      </trkpt>
      <trkpt lat="45.23441" lon="5.90634">
        <ele>693.28</ele>
        <time>2020-10-13T11:38:53.000Z</time>
      </trkpt>
      <trkpt lat="45.23429" lon="5.9067">
        <ele>697.8</ele>
        <time>2020-10-13T11:38:58.000Z</time>
      </trkpt>
      <trkpt lat="45.23412" lon="5.90709">
        <ele>697.06</ele>
        <time>2020-10-13T11:39:03.000Z</time>
      </trkpt>
      <trkpt lat="45.23394" lon="5.90745">
        <ele>697.84</ele>
        <time>2020-10-13T11:39:08.000Z</time>
      </trkpt>
      <trkpt lat="45.23374" lon="5.90786">
        <ele>696.32</ele>
        <time>2020-10-13T11:39:13.000Z</time>
      </trkpt>
      <trkpt lat="45.23362" lon="5.90826">
        <ele>696.68</ele>
        <time>2020-10-13T11:39:18.000Z</time>
      </trkpt>
      <trkpt lat="45.23348" lon="5.90863">
        <ele>698.9</ele>
        <time>2020-10-13T11:39:23.000Z</time>
      </trkpt>
      <trkpt lat="45.23343" lon="5.90886">
        <ele>702.67</ele>
        <time>2020-10-13T11:39:28.000Z</time>
      </trkpt>
      <trkpt lat="45.2333" lon="5.90919">
        <ele>703.98</ele>
        <time>2020-10-13T11:39:33.000Z</time>
      </trkpt>
      <trkpt lat="45.23316" lon="5.90945">
        <ele>706.11</ele>
        <time>2020-10-13T11:39:38.000Z</time>
      </trkpt>
      <trkpt lat="45.233" lon="5.9097">
        <ele>708.64</ele>
        <time>2020-10-13T11:39:43.000Z</time>
      </trkpt>
      <trkpt lat="45.23286" lon="5.90991">
        <ele>709.1</ele>
        <time>2020-10-13T11:39:48.000Z</time>
      </trkpt>
      <trkpt lat="45.2327" lon="5.91016">
        <ele>706.29</ele>
        <time>2020-10-13T11:39:53.000Z</time>
      </trkpt>
      <trkpt lat="45.2325" lon="5.91035">
        <ele>706.13</ele>
        <time>2020-10-13T11:39:58.000Z</time>
      </trkpt>
      <trkpt lat="45.23231" lon="5.91058">
        <ele>707.26</ele>
        <time>2020-10-13T11:40:03.000Z</time>
      </trkpt>
      <trkpt lat="45.23214" lon="5.91083">
        <ele>708.89</ele>
        <time>2020-10-13T11:40:08.000Z</time>
      </trkpt>
      <trkpt lat="45.23205" lon="5.91114">
        <ele>710.33</ele>
        <time>2020-10-13T11:40:13.000Z</time>
      </trkpt>
      <trkpt lat="45.23193" lon="5.91146">
        <ele>713.07</ele>
        <time>2020-10-13T11:40:18.000Z</time>
      </trkpt>
      <trkpt lat="45.23175" lon="5.91169">
        <ele>717.92</ele>
        <time>2020-10-13T11:40:23.000Z</time>
      </trkpt>
      <trkpt lat="45.23157" lon="5.91183">
        <ele>718.86</ele>
        <time>2020-10-13T11:40:28.000Z</time>
      </trkpt>
      <trkpt lat="45.23134" lon="5.91195">
        <ele>723.64</ele>
        <time>2020-10-13T11:40:33.000Z</time>
      </trkpt>
      <trkpt lat="45.23111" lon="5.9121">
        <ele>723.27</ele>
        <time>2020-10-13T11:40:38.000Z</time>
      </trkpt>
      <trkpt lat="45.2309" lon="5.91222">
        <ele>721.55</ele>
        <time>2020-10-13T11:40:43.000Z</time>
      </trkpt>
      <trkpt lat="45.2307" lon="5.91234">
        <ele>719.52</ele>
        <time>2020-10-13T11:40:48.000Z</time>
      </trkpt>
      <trkpt lat="45.23053" lon="5.91252">
        <ele>718.05</ele>
        <time>2020-10-13T11:40:53.000Z</time>
      </trkpt>
      <trkpt lat="45.2303" lon="5.9127">
        <ele>718.29</ele>
        <time>2020-10-13T11:40:58.000Z</time>
      </trkpt>
      <trkpt lat="45.23013" lon="5.91291">
        <ele>719.09</ele>
        <time>2020-10-13T11:41:03.000Z</time>
      </trkpt>
      <trkpt lat="45.22995" lon="5.91316">
        <ele>721.13</ele>
        <time>2020-10-13T11:41:08.000Z</time>
      </trkpt>
      <trkpt lat="45.22983" lon="5.91353">
        <ele>724.76</ele>
        <time>2020-10-13T11:41:13.000Z</time>
      </trkpt>
      <trkpt lat="45.22972" lon="5.91386">
        <ele>727.64</ele>
        <time>2020-10-13T11:41:18.000Z</time>
      </trkpt>
      <trkpt lat="45.22959" lon="5.91419">
        <ele>730.64</ele>
        <time>2020-10-13T11:41:23.000Z</time>
      </trkpt>
      <trkpt lat="45.22953" lon="5.91458">
        <ele>735.68</ele>
        <time>2020-10-13T11:41:28.000Z</time>
      </trkpt>
      <trkpt lat="45.22949" lon="5.91503">
        <ele>738.11</ele>
        <time>2020-10-13T11:41:33.000Z</time>
      </trkpt>
      <trkpt lat="45.22959" lon="5.91549">
        <ele>737.59</ele>
        <time>2020-10-13T11:41:38.000Z</time>
      </trkpt>
      <trkpt lat="45.22973" lon="5.91591">
        <ele>739.49</ele>
        <time>2020-10-13T11:41:43.000Z</time>
      </trkpt>
      <trkpt lat="45.22979" lon="5.91646">
        <ele>737.48</ele>
        <time>2020-10-13T11:41:48.000Z</time>
      </trkpt>
      <trkpt lat="45.22975" lon="5.91702">
        <ele>740.7</ele>
        <time>2020-10-13T11:41:53.000Z</time>
      </trkpt>
      <trkpt lat="45.22959" lon="5.91761">
        <ele>740.42</ele>
        <time>2020-10-13T11:41:58.000Z</time>
      </trkpt>
      <trkpt lat="45.22929" lon="5.91812">
        <ele>739.43</ele>
        <time>2020-10-13T11:42:03.000Z</time>
      </trkpt>
      <trkpt lat="45.22897" lon="5.91862">
        <ele>737.7</ele>
        <time>2020-10-13T11:42:08.000Z</time>
      </trkpt>
      <trkpt lat="45.22864" lon="5.91897">
        <ele>737.73</ele>
        <time>2020-10-13T11:42:13.000Z</time>
      </trkpt>
      <trkpt lat="45.22827" lon="5.91931">
        <ele>735.52</ele>
        <time>2020-10-13T11:42:18.000Z</time>
      </trkpt>
      <trkpt lat="45.22783" lon="5.91953">
        <ele>735.34</ele>
        <time>2020-10-13T11:42:23.000Z</time>
      </trkpt>
      <trkpt lat="45.22758" lon="5.91993">
        <ele>733.13</ele>
        <time>2020-10-13T11:42:28.000Z</time>
      </trkpt>
      <trkpt lat="45.2276" lon="5.92048">
        <ele>735.22</ele>
        <time>2020-10-13T11:42:33.000Z</time>
      </trkpt>
      <trkpt lat="45.22751" lon="5.92092">
        <ele>738.78</ele>
        <time>2020-10-13T11:42:38.000Z</time>
      </trkpt>
      <trkpt lat="45.22733" lon="5.9213">
        <ele>738.78</ele>
        <time>2020-10-13T11:42:43.000Z</time>
      </trkpt>
      <trkpt lat="45.22713" lon="5.92163">
        <ele>737.82</ele>
        <time>2020-10-13T11:42:48.000Z</time>
      </trkpt>
      <trkpt lat="45.22697" lon="5.92193">
        <ele>737.52</ele>
        <time>2020-10-13T11:42:53.000Z</time>
      </trkpt>
      <trkpt lat="45.22681" lon="5.92223">
        <ele>734.89</ele>
        <time>2020-10-13T11:42:58.000Z</time>
      </trkpt>
      <trkpt lat="45.22663" lon="5.92254">
        <ele>735.77</ele>
        <time>2020-10-13T11:43:03.000Z</time>
      </trkpt>
      <trkpt lat="45.22646" lon="5.92284">
        <ele>733.52</ele>
        <time>2020-10-13T11:43:08.000Z</time>
      </trkpt>
      <trkpt lat="45.2263" lon="5.92317">
        <ele>739.56</ele>
        <time>2020-10-13T11:43:13.000Z</time>
      </trkpt>
      <trkpt lat="45.22618" lon="5.92354">
        <ele>739.11</ele>
        <time>2020-10-13T11:43:18.000Z</time>
      </trkpt>
      <trkpt lat="45.2261" lon="5.92394">
        <ele>738.79</ele>
        <time>2020-10-13T11:43:23.000Z</time>
      </trkpt>
      <trkpt lat="45.22604" lon="5.92438">
        <ele>737.82</ele>
        <time>2020-10-13T11:43:28.000Z</time>
      </trkpt>
      <trkpt lat="45.22593" lon="5.92495">
        <ele>735.82</ele>
        <time>2020-10-13T11:43:33.000Z</time>
      </trkpt>
      <trkpt lat="45.22587" lon="5.92557">
        <ele>737.29</ele>
        <time>2020-10-13T11:43:38.000Z</time>
      </trkpt>
      <trkpt lat="45.2259" lon="5.9262">
        <ele>738.64</ele>
        <time>2020-10-13T11:43:43.000Z</time>
      </trkpt>
      <trkpt lat="45.22579" lon="5.92675">
        <ele>737.92</ele>
        <time>2020-10-13T11:43:48.000Z</time>
      </trkpt>
      <trkpt lat="45.22548" lon="5.92721">
        <ele>736.69</ele>
        <time>2020-10-13T11:43:53.000Z</time>
      </trkpt>
      <trkpt lat="45.22511" lon="5.92763">
        <ele>737.17</ele>
        <time>2020-10-13T11:43:58.000Z</time>
      </trkpt>
      <trkpt lat="45.2247" lon="5.92773">
        <ele>734.2</ele>
        <time>2020-10-13T11:44:03.000Z</time>
      </trkpt>
      <trkpt lat="45.22439" lon="5.92779">
        <ele>738.01</ele>
        <time>2020-10-13T11:44:08.000Z</time>
      </trkpt>
      <trkpt lat="45.22408" lon="5.92788">
        <ele>739.81</ele>
        <time>2020-10-13T11:44:13.000Z</time>
      </trkpt>
      <trkpt lat="45.22375" lon="5.92781">
        <ele>742.47</ele>
        <time>2020-10-13T11:44:18.000Z</time>
      </trkpt>
      <trkpt lat="45.22344" lon="5.92774">
        <ele>743.27</ele>
        <time>2020-10-13T11:44:23.000Z</time>
      </trkpt>
      <trkpt lat="45.22313" lon="5.92764">
        <ele>741.62</ele>
        <time>2020-10-13T11:44:28.000Z</time>
      </trkpt>
      <trkpt lat="45.2228" lon="5.9276">
        <ele>740.99</ele>
        <time>2020-10-13T11:44:33.000Z</time>
      </trkpt>
      <trkpt lat="45.22249" lon="5.92769">
        <ele>740.7</ele>
        <time>2020-10-13T11:44:38.000Z</time>
      </trkpt>
      <trkpt lat="45.22215" lon="5.92779">
        <ele>741.89</ele>
        <time>2020-10-13T11:44:43.000Z</time>
      </trkpt>
      <trkpt lat="45.22184" lon="5.92787">
        <ele>742.77</ele>
        <time>2020-10-13T11:44:48.000Z</time>
      </trkpt>
      <trkpt lat="45.22151" lon="5.92795">
        <ele>743.81</ele>
        <time>2020-10-13T11:44:53.000Z</time>
      </trkpt>
      <trkpt lat="45.2212" lon="5.92795">
        <ele>742.83</ele>
        <time>2020-10-13T11:44:58.000Z</time>
      </trkpt>
      <trkpt lat="45.22088" lon="5.92798">
        <ele>745.24</ele>
        <time>2020-10-13T11:45:03.000Z</time>
      </trkpt>
      <trkpt lat="45.22055" lon="5.92805">
        <ele>744.18</ele>
        <time>2020-10-13T11:45:08.000Z</time>
      </trkpt>
      <trkpt lat="45.22023" lon="5.9282">
        <ele>748.16</ele>
        <time>2020-10-13T11:45:13.000Z</time>
      </trkpt>
      <trkpt lat="45.21991" lon="5.92842">
        <ele>751.49</ele>
        <time>2020-10-13T11:45:18.000Z</time>
      </trkpt>
      <trkpt lat="45.21962" lon="5.92858">
        <ele>752.47</ele>
        <time>2020-10-13T11:45:23.000Z</time>
      </trkpt>
      <trkpt lat="45.21931" lon="5.92879">
        <ele>753</ele>
        <time>2020-10-13T11:45:28.000Z</time>
      </trkpt>
      <trkpt lat="45.21901" lon="5.929">
        <ele>751.33</ele>
        <time>2020-10-13T11:45:33.000Z</time>
      </trkpt>
      <trkpt lat="45.21875" lon="5.92926">
        <ele>751.65</ele>
        <time>2020-10-13T11:45:38.000Z</time>
      </trkpt>
      <trkpt lat="45.21851" lon="5.9296">
        <ele>752.61</ele>
        <time>2020-10-13T11:45:43.000Z</time>
      </trkpt>
      <trkpt lat="45.21822" lon="5.92989">
        <ele>752.29</ele>
        <time>2020-10-13T11:45:48.000Z</time>
      </trkpt>
      <trkpt lat="45.21793" lon="5.93017">
        <ele>750.27</ele>
        <time>2020-10-13T11:45:53.000Z</time>
      </trkpt>
      <trkpt lat="45.21767" lon="5.93036">
        <ele>750.01</ele>
        <time>2020-10-13T11:45:58.000Z</time>
      </trkpt>
      <trkpt lat="45.2174" lon="5.9305">
        <ele>751.56</ele>
        <time>2020-10-13T11:46:03.000Z</time>
      </trkpt>
      <trkpt lat="45.21716" lon="5.93063">
        <ele>751.57</ele>
        <time>2020-10-13T11:46:08.000Z</time>
      </trkpt>
      <trkpt lat="45.21698" lon="5.93073">
        <ele>753.11</ele>
        <time>2020-10-13T11:46:13.000Z</time>
      </trkpt>
      <trkpt lat="45.21679" lon="5.93089">
        <ele>753.48</ele>
        <time>2020-10-13T11:46:18.000Z</time>
      </trkpt>
      <trkpt lat="45.21659" lon="5.93108">
        <ele>750.82</ele>
        <time>2020-10-13T11:46:23.000Z</time>
      </trkpt>
      <trkpt lat="45.21637" lon="5.93134">
        <ele>756.6</ele>
        <time>2020-10-13T11:46:28.000Z</time>
      </trkpt>
      <trkpt lat="45.21618" lon="5.93161">
        <ele>757.43</ele>
        <time>2020-10-13T11:46:33.000Z</time>
      </trkpt>
      <trkpt lat="45.21594" lon="5.93186">
        <ele>759.17</ele>
        <time>2020-10-13T11:46:38.000Z</time>
      </trkpt>
      <trkpt lat="45.21571" lon="5.93205">
        <ele>757.22</ele>
        <time>2020-10-13T11:46:43.000Z</time>
      </trkpt>
      <trkpt lat="45.21541" lon="5.9322">
        <ele>756.45</ele>
        <time>2020-10-13T11:46:48.000Z</time>
      </trkpt>
      <trkpt lat="45.21512" lon="5.93236">
        <ele>760.15</ele>
        <time>2020-10-13T11:46:53.000Z</time>
      </trkpt>
      <trkpt lat="45.21481" lon="5.93248">
        <ele>758.8</ele>
        <time>2020-10-13T11:46:58.000Z</time>
      </trkpt>
      <trkpt lat="45.21447" lon="5.93254">
        <ele>757.43</ele>
        <time>2020-10-13T11:47:03.000Z</time>
      </trkpt>
      <trkpt lat="45.21416" lon="5.9327">
        <ele>756.08</ele>
        <time>2020-10-13T11:47:08.000Z</time>
      </trkpt>
      <trkpt lat="45.21386" lon="5.93294">
        <ele>757.18</ele>
        <time>2020-10-13T11:47:13.000Z</time>
      </trkpt>
      <trkpt lat="45.21366" lon="5.93334">
        <ele>757.89</ele>
        <time>2020-10-13T11:47:18.000Z</time>
      </trkpt>
      <trkpt lat="45.21375" lon="5.93382">
        <ele>760.04</ele>
        <time>2020-10-13T11:47:23.000Z</time>
      </trkpt>
      <trkpt lat="45.21378" lon="5.93425">
        <ele>763.31</ele>
        <time>2020-10-13T11:47:28.000Z</time>
      </trkpt>
      <trkpt lat="45.21398" lon="5.9347">
        <ele>763.56</ele>
        <time>2020-10-13T11:47:33.000Z</time>
      </trkpt>
      <trkpt lat="45.21418" lon="5.93504">
        <ele>762.62</ele>
        <time>2020-10-13T11:47:38.000Z</time>
      </trkpt>
      <trkpt lat="45.21456" lon="5.93526">
        <ele>762.39</ele>
        <time>2020-10-13T11:47:43.000Z</time>
      </trkpt>
      <trkpt lat="45.21493" lon="5.93518">
        <ele>761.62</ele>
        <time>2020-10-13T11:47:48.000Z</time>
      </trkpt>
      <trkpt lat="45.21528" lon="5.93504">
        <ele>759.77</ele>
        <time>2020-10-13T11:47:53.000Z</time>
      </trkpt>
      <trkpt lat="45.21552" lon="5.93481">
        <ele>762.17</ele>
        <time>2020-10-13T11:47:58.000Z</time>
      </trkpt>
      <trkpt lat="45.21578" lon="5.93453">
        <ele>756.29</ele>
        <time>2020-10-13T11:48:03.000Z</time>
      </trkpt>
      <trkpt lat="45.21605" lon="5.93426">
        <ele>754.86</ele>
        <time>2020-10-13T11:48:08.000Z</time>
      </trkpt>
      <trkpt lat="45.21629" lon="5.93397">
        <ele>754.56</ele>
        <time>2020-10-13T11:48:13.000Z</time>
      </trkpt>
      <trkpt lat="45.21655" lon="5.93373">
        <ele>757.05</ele>
        <time>2020-10-13T11:48:18.000Z</time>
      </trkpt>
      <trkpt lat="45.21687" lon="5.93373">
        <ele>756.67</ele>
        <time>2020-10-13T11:48:23.000Z</time>
      </trkpt>
      <trkpt lat="45.21721" lon="5.93386">
        <ele>758.12</ele>
        <time>2020-10-13T11:48:28.000Z</time>
      </trkpt>
      <trkpt lat="45.21761" lon="5.93389">
        <ele>760.52</ele>
        <time>2020-10-13T11:48:33.000Z</time>
      </trkpt>
      <trkpt lat="45.21804" lon="5.93364">
        <ele>760.26</ele>
        <time>2020-10-13T11:48:38.000Z</time>
      </trkpt>
      <trkpt lat="45.21844" lon="5.93337">
        <ele>754.78</ele>
        <time>2020-10-13T11:48:43.000Z</time>
      </trkpt>
      <trkpt lat="45.2188" lon="5.93314">
        <ele>754.15</ele>
        <time>2020-10-13T11:48:48.000Z</time>
      </trkpt>
      <trkpt lat="45.21907" lon="5.93288">
        <ele>754.97</ele>
        <time>2020-10-13T11:48:53.000Z</time>
      </trkpt>
      <trkpt lat="45.21929" lon="5.93256">
        <ele>756.12</ele>
        <time>2020-10-13T11:48:58.000Z</time>
      </trkpt>
      <trkpt lat="45.21958" lon="5.93235">
        <ele>756.54</ele>
        <time>2020-10-13T11:49:03.000Z</time>
      </trkpt>
      <trkpt lat="45.21991" lon="5.93236">
        <ele>752.56</ele>
        <time>2020-10-13T11:49:08.000Z</time>
      </trkpt>
      <trkpt lat="45.22024" lon="5.93255">
        <ele>750.53</ele>
        <time>2020-10-13T11:49:13.000Z</time>
      </trkpt>
      <trkpt lat="45.22057" lon="5.93281">
        <ele>752.3</ele>
        <time>2020-10-13T11:49:18.000Z</time>
      </trkpt>
      <trkpt lat="45.22096" lon="5.93308">
        <ele>746.28</ele>
        <time>2020-10-13T11:49:23.000Z</time>
      </trkpt>
      <trkpt lat="45.22131" lon="5.93335">
        <ele>746.53</ele>
        <time>2020-10-13T11:49:28.000Z</time>
      </trkpt>
      <trkpt lat="45.22167" lon="5.93354">
        <ele>746.56</ele>
        <time>2020-10-13T11:49:33.000Z</time>
      </trkpt>
      <trkpt lat="45.22203" lon="5.93351">
        <ele>746.89</ele>
        <time>2020-10-13T11:49:38.000Z</time>
      </trkpt>
      <trkpt lat="45.22229" lon="5.9332">
        <ele>745.41</ele>
        <time>2020-10-13T11:49:43.000Z</time>
      </trkpt>
      <trkpt lat="45.22254" lon="5.93299">
        <ele>745.14</ele>
        <time>2020-10-13T11:49:48.000Z</time>
      </trkpt>
      <trkpt lat="45.22286" lon="5.9331">
        <ele>746.89</ele>
        <time>2020-10-13T11:49:53.000Z</time>
      </trkpt>
      <trkpt lat="45.22317" lon="5.9332">
        <ele>749.11</ele>
        <time>2020-10-13T11:49:58.000Z</time>
      </trkpt>
      <trkpt lat="45.22347" lon="5.93341">
        <ele>748.59</ele>
        <time>2020-10-13T11:50:03.000Z</time>
      </trkpt>
      <trkpt lat="45.22376" lon="5.93351">
        <ele>749.58</ele>
        <time>2020-10-13T11:50:08.000Z</time>
      </trkpt>
      <trkpt lat="45.22402" lon="5.93357">
        <ele>753.71</ele>
        <time>2020-10-13T11:50:13.000Z</time>
      </trkpt>
      <trkpt lat="45.22425" lon="5.93374">
        <ele>759.26</ele>
        <time>2020-10-13T11:50:18.000Z</time>
      </trkpt>
      <trkpt lat="45.22449" lon="5.93402">
        <ele>757.58</ele>
        <time>2020-10-13T11:50:23.000Z</time>
      </trkpt>
      <trkpt lat="45.2247" lon="5.93427">
        <ele>762.33</ele>
        <time>2020-10-13T11:50:28.000Z</time>
      </trkpt>
      <trkpt lat="45.2249" lon="5.93447">
        <ele>763.11</ele>
        <time>2020-10-13T11:50:33.000Z</time>
      </trkpt>
      <trkpt lat="45.22514" lon="5.93458">
        <ele>766.66</ele>
        <time>2020-10-13T11:50:38.000Z</time>
      </trkpt>
      <trkpt lat="45.2254" lon="5.93465">
        <ele>769.97</ele>
        <time>2020-10-13T11:50:43.000Z</time>
      </trkpt>
      <trkpt lat="45.2257" lon="5.9347">
        <ele>771.21</ele>
        <time>2020-10-13T11:50:48.000Z</time>
      </trkpt>
      <trkpt lat="45.22598" lon="5.93471">
        <ele>770.69</ele>
        <time>2020-10-13T11:50:53.000Z</time>
      </trkpt>
      <trkpt lat="45.22625" lon="5.9347">
        <ele>771.27</ele>
        <time>2020-10-13T11:50:58.000Z</time>
      </trkpt>
      <trkpt lat="45.22657" lon="5.93461">
        <ele>774.93</ele>
        <time>2020-10-13T11:51:03.000Z</time>
      </trkpt>
      <trkpt lat="45.22694" lon="5.9344">
        <ele>777.44</ele>
        <time>2020-10-13T11:51:08.000Z</time>
      </trkpt>
      <trkpt lat="45.22731" lon="5.93401">
        <ele>773.67</ele>
        <time>2020-10-13T11:51:13.000Z</time>
      </trkpt>
      <trkpt lat="45.22768" lon="5.93353">
        <ele>770.62</ele>
        <time>2020-10-13T11:51:18.000Z</time>
      </trkpt>
      <trkpt lat="45.22819" lon="5.93333">
        <ele>767.31</ele>
        <time>2020-10-13T11:51:23.000Z</time>
      </trkpt>
      <trkpt lat="45.22874" lon="5.93337">
        <ele>757.62</ele>
        <time>2020-10-13T11:51:28.000Z</time>
      </trkpt>
      <trkpt lat="45.22924" lon="5.9336">
        <ele>754.15</ele>
        <time>2020-10-13T11:51:33.000Z</time>
      </trkpt>
      <trkpt lat="45.22982" lon="5.93356">
        <ele>747.92</ele>
        <time>2020-10-13T11:51:38.000Z</time>
      </trkpt>
      <trkpt lat="45.23039" lon="5.93379">
        <ele>744.33</ele>
        <time>2020-10-13T11:51:43.000Z</time>
      </trkpt>
      <trkpt lat="45.23083" lon="5.93403">
        <ele>742.85</ele>
        <time>2020-10-13T11:51:48.000Z</time>
      </trkpt>
      <trkpt lat="45.23115" lon="5.93418">
        <ele>747.85</ele>
        <time>2020-10-13T11:51:53.000Z</time>
      </trkpt>
      <trkpt lat="45.23143" lon="5.93438">
        <ele>750.15</ele>
        <time>2020-10-13T11:51:58.000Z</time>
      </trkpt>
      <trkpt lat="45.23171" lon="5.93442">
        <ele>753.79</ele>
        <time>2020-10-13T11:52:03.000Z</time>
      </trkpt>
      <trkpt lat="45.23197" lon="5.93425">
        <ele>759.03</ele>
        <time>2020-10-13T11:52:08.000Z</time>
      </trkpt>
      <trkpt lat="45.23216" lon="5.93389">
        <ele>760.1</ele>
        <time>2020-10-13T11:52:13.000Z</time>
      </trkpt>
      <trkpt lat="45.23236" lon="5.93359">
        <ele>756.46</ele>
        <time>2020-10-13T11:52:18.000Z</time>
      </trkpt>
      <trkpt lat="45.23262" lon="5.93328">
        <ele>760.36</ele>
        <time>2020-10-13T11:52:23.000Z</time>
      </trkpt>
      <trkpt lat="45.23287" lon="5.93309">
        <ele>761.72</ele>
        <time>2020-10-13T11:52:28.000Z</time>
      </trkpt>
      <trkpt lat="45.23308" lon="5.9329">
        <ele>764.31</ele>
        <time>2020-10-13T11:52:33.000Z</time>
      </trkpt>
      <trkpt lat="45.23328" lon="5.93278">
        <ele>763.5</ele>
        <time>2020-10-13T11:52:38.000Z</time>
      </trkpt>
      <trkpt lat="45.23348" lon="5.93261">
        <ele>763.61</ele>
        <time>2020-10-13T11:52:43.000Z</time>
      </trkpt>
      <trkpt lat="45.23367" lon="5.93245">
        <ele>765.58</ele>
        <time>2020-10-13T11:52:48.000Z</time>
      </trkpt>
      <trkpt lat="45.23387" lon="5.93227">
        <ele>768.73</ele>
        <time>2020-10-13T11:52:53.000Z</time>
      </trkpt>
      <trkpt lat="45.23405" lon="5.93207">
        <ele>774.06</ele>
        <time>2020-10-13T11:52:58.000Z</time>
      </trkpt>
      <trkpt lat="45.23427" lon="5.93187">
        <ele>773.16</ele>
        <time>2020-10-13T11:53:03.000Z</time>
      </trkpt>
      <trkpt lat="45.23445" lon="5.93165">
        <ele>775.13</ele>
        <time>2020-10-13T11:53:08.000Z</time>
      </trkpt>
      <trkpt lat="45.23461" lon="5.93143">
        <ele>780.35</ele>
        <time>2020-10-13T11:53:13.000Z</time>
      </trkpt>
      <trkpt lat="45.23477" lon="5.9312">
        <ele>785.32</ele>
        <time>2020-10-13T11:53:18.000Z</time>
      </trkpt>
      <trkpt lat="45.23494" lon="5.93098">
        <ele>788.65</ele>
        <time>2020-10-13T11:53:23.000Z</time>
      </trkpt>
      <trkpt lat="45.23514" lon="5.93077">
        <ele>791.46</ele>
        <time>2020-10-13T11:53:28.000Z</time>
      </trkpt>
      <trkpt lat="45.23536" lon="5.93065">
        <ele>793.91</ele>
        <time>2020-10-13T11:53:33.000Z</time>
      </trkpt>
      <trkpt lat="45.23561" lon="5.93064">
        <ele>794.97</ele>
        <time>2020-10-13T11:53:38.000Z</time>
      </trkpt>
      <trkpt lat="45.23584" lon="5.93067">
        <ele>794.74</ele>
        <time>2020-10-13T11:53:43.000Z</time>
      </trkpt>
      <trkpt lat="45.23608" lon="5.93053">
        <ele>796.77</ele>
        <time>2020-10-13T11:53:48.000Z</time>
      </trkpt>
      <trkpt lat="45.23632" lon="5.93044">
        <ele>798.69</ele>
        <time>2020-10-13T11:53:53.000Z</time>
      </trkpt>
      <trkpt lat="45.23658" lon="5.93029">
        <ele>801.4</ele>
        <time>2020-10-13T11:53:58.000Z</time>
      </trkpt>
      <trkpt lat="45.2368" lon="5.93014">
        <ele>802.57</ele>
        <time>2020-10-13T11:54:03.000Z</time>
      </trkpt>
      <trkpt lat="45.23704" lon="5.93002">
        <ele>801.35</ele>
        <time>2020-10-13T11:54:08.000Z</time>
      </trkpt>
      <trkpt lat="45.23723" lon="5.92982">
        <ele>803.52</ele>
        <time>2020-10-13T11:54:13.000Z</time>
      </trkpt>
      <trkpt lat="45.23741" lon="5.92958">
        <ele>808.59</ele>
        <time>2020-10-13T11:54:18.000Z</time>
      </trkpt>
      <trkpt lat="45.23758" lon="5.92932">
        <ele>809.27</ele>
        <time>2020-10-13T11:54:23.000Z</time>
      </trkpt>
      <trkpt lat="45.23773" lon="5.92909">
        <ele>809.11</ele>
        <time>2020-10-13T11:54:28.000Z</time>
      </trkpt>
      <trkpt lat="45.2379" lon="5.92883">
        <ele>810.3</ele>
        <time>2020-10-13T11:54:33.000Z</time>
      </trkpt>
      <trkpt lat="45.23799" lon="5.929">
        <ele>810.55</ele>
        <time>2020-10-13T11:54:38.000Z</time>
      </trkpt>
      <trkpt lat="45.23782" lon="5.92926">
        <ele>812.65</ele>
        <time>2020-10-13T11:54:43.000Z</time>
      </trkpt>
      <trkpt lat="45.23768" lon="5.92957">
        <ele>813.21</ele>
        <time>2020-10-13T11:54:48.000Z</time>
      </trkpt>
      <trkpt lat="45.23758" lon="5.9299">
        <ele>815.24</ele>
        <time>2020-10-13T11:54:53.000Z</time>
      </trkpt>
      <trkpt lat="45.23753" lon="5.9302">
        <ele>815.24</ele>
        <time>2020-10-13T11:54:58.000Z</time>
      </trkpt>
      <trkpt lat="45.2374" lon="5.9305">
        <ele>814.66</ele>
        <time>2020-10-13T11:55:03.000Z</time>
      </trkpt>
      <trkpt lat="45.23722" lon="5.93073">
        <ele>816.58</ele>
        <time>2020-10-13T11:55:08.000Z</time>
      </trkpt>
      <trkpt lat="45.23707" lon="5.93095">
        <ele>819.67</ele>
        <time>2020-10-13T11:55:13.000Z</time>
      </trkpt>
      <trkpt lat="45.23688" lon="5.93118">
        <ele>821.86</ele>
        <time>2020-10-13T11:55:18.000Z</time>
      </trkpt>
      <trkpt lat="45.2367" lon="5.93141">
        <ele>825.9</ele>
        <time>2020-10-13T11:55:23.000Z</time>
      </trkpt>
      <trkpt lat="45.23651" lon="5.93166">
        <ele>826.99</ele>
        <time>2020-10-13T11:55:28.000Z</time>
      </trkpt>
      <trkpt lat="45.23634" lon="5.93187">
        <ele>830.19</ele>
        <time>2020-10-13T11:55:33.000Z</time>
      </trkpt>
      <trkpt lat="45.23617" lon="5.93211">
        <ele>834.82</ele>
        <time>2020-10-13T11:55:38.000Z</time>
      </trkpt>
      <trkpt lat="45.23601" lon="5.93235">
        <ele>839.79</ele>
        <time>2020-10-13T11:55:43.000Z</time>
      </trkpt>
      <trkpt lat="45.23583" lon="5.9326">
        <ele>842.97</ele>
        <time>2020-10-13T11:55:48.000Z</time>
      </trkpt>
      <trkpt lat="45.2357" lon="5.93291">
        <ele>846.82</ele>
        <time>2020-10-13T11:55:53.000Z</time>
      </trkpt>
      <trkpt lat="45.23565" lon="5.93324">
        <ele>845.7</ele>
        <time>2020-10-13T11:55:58.000Z</time>
      </trkpt>
      <trkpt lat="45.23561" lon="5.9335">
        <ele>847.27</ele>
        <time>2020-10-13T11:56:03.000Z</time>
      </trkpt>
      <trkpt lat="45.23556" lon="5.93383">
        <ele>847.07</ele>
        <time>2020-10-13T11:56:08.000Z</time>
      </trkpt>
      <trkpt lat="45.23556" lon="5.93409">
        <ele>845.51</ele>
        <time>2020-10-13T11:56:13.000Z</time>
      </trkpt>
      <trkpt lat="45.23546" lon="5.93433">
        <ele>846.67</ele>
        <time>2020-10-13T11:56:18.000Z</time>
      </trkpt>
      <trkpt lat="45.23536" lon="5.93461">
        <ele>850</ele>
        <time>2020-10-13T11:56:23.000Z</time>
      </trkpt>
      <trkpt lat="45.23522" lon="5.93484">
        <ele>856.27</ele>
        <time>2020-10-13T11:56:28.000Z</time>
      </trkpt>
      <trkpt lat="45.23513" lon="5.93517">
        <ele>858.88</ele>
        <time>2020-10-13T11:56:33.000Z</time>
      </trkpt>
      <trkpt lat="45.23509" lon="5.93548">
        <ele>862</ele>
        <time>2020-10-13T11:56:38.000Z</time>
      </trkpt>
      <trkpt lat="45.23506" lon="5.93577">
        <ele>863.74</ele>
        <time>2020-10-13T11:56:43.000Z</time>
      </trkpt>
      <trkpt lat="45.23498" lon="5.93602">
        <ele>862.46</ele>
        <time>2020-10-13T11:56:48.000Z</time>
      </trkpt>
      <trkpt lat="45.23498" lon="5.93631">
        <ele>861.34</ele>
        <time>2020-10-13T11:56:53.000Z</time>
      </trkpt>
      <trkpt lat="45.23504" lon="5.93659">
        <ele>862.71</ele>
        <time>2020-10-13T11:56:58.000Z</time>
      </trkpt>
      <trkpt lat="45.23508" lon="5.93689">
        <ele>864.19</ele>
        <time>2020-10-13T11:57:03.000Z</time>
      </trkpt>
      <trkpt lat="45.23507" lon="5.93718">
        <ele>862.61</ele>
        <time>2020-10-13T11:57:08.000Z</time>
      </trkpt>
      <trkpt lat="45.23506" lon="5.93749">
        <ele>868.47</ele>
        <time>2020-10-13T11:57:13.000Z</time>
      </trkpt>
      <trkpt lat="45.23505" lon="5.93781">
        <ele>875.94</ele>
        <time>2020-10-13T11:57:18.000Z</time>
      </trkpt>
      <trkpt lat="45.23501" lon="5.93813">
        <ele>878.77</ele>
        <time>2020-10-13T11:57:23.000Z</time>
      </trkpt>
      <trkpt lat="45.23498" lon="5.93839">
        <ele>876.46</ele>
        <time>2020-10-13T11:57:28.000Z</time>
      </trkpt>
      <trkpt lat="45.23511" lon="5.93876">
        <ele>877.18</ele>
        <time>2020-10-13T11:57:33.000Z</time>
      </trkpt>
      <trkpt lat="45.23521" lon="5.93904">
        <ele>878.88</ele>
        <time>2020-10-13T11:57:38.000Z</time>
      </trkpt>
      <trkpt lat="45.23524" lon="5.93934">
        <ele>879.74</ele>
        <time>2020-10-13T11:57:43.000Z</time>
      </trkpt>
      <trkpt lat="45.23527" lon="5.93962">
        <ele>880.89</ele>
        <time>2020-10-13T11:57:48.000Z</time>
      </trkpt>
      <trkpt lat="45.23532" lon="5.93991">
        <ele>879.68</ele>
        <time>2020-10-13T11:57:53.000Z</time>
      </trkpt>
      <trkpt lat="45.23525" lon="5.94021">
        <ele>882.36</ele>
        <time>2020-10-13T11:57:58.000Z</time>
      </trkpt>
      <trkpt lat="45.2351" lon="5.94045">
        <ele>886.41</ele>
        <time>2020-10-13T11:58:03.000Z</time>
      </trkpt>
      <trkpt lat="45.23497" lon="5.94068">
        <ele>890.16</ele>
        <time>2020-10-13T11:58:08.000Z</time>
      </trkpt>
      <trkpt lat="45.23487" lon="5.94096">
        <ele>890.39</ele>
        <time>2020-10-13T11:58:13.000Z</time>
      </trkpt>
      <trkpt lat="45.23493" lon="5.94127">
        <ele>893.86</ele>
        <time>2020-10-13T11:58:18.000Z</time>
      </trkpt>
      <trkpt lat="45.23513" lon="5.94122">
        <ele>897.75</ele>
        <time>2020-10-13T11:58:23.000Z</time>
      </trkpt>
      <trkpt lat="45.23532" lon="5.94103">
        <ele>900.52</ele>
        <time>2020-10-13T11:58:28.000Z</time>
      </trkpt>
      <trkpt lat="45.23548" lon="5.94091">
        <ele>903.06</ele>
        <time>2020-10-13T11:58:33.000Z</time>
      </trkpt>
      <trkpt lat="45.23563" lon="5.9407">
        <ele>902.2</ele>
        <time>2020-10-13T11:58:38.000Z</time>
      </trkpt>
      <trkpt lat="45.23577" lon="5.94044">
        <ele>902.54</ele>
        <time>2020-10-13T11:58:43.000Z</time>
      </trkpt>
      <trkpt lat="45.23585" lon="5.94008">
        <ele>905.04</ele>
        <time>2020-10-13T11:58:48.000Z</time>
      </trkpt>
      <trkpt lat="45.23593" lon="5.93978">
        <ele>908.84</ele>
        <time>2020-10-13T11:58:53.000Z</time>
      </trkpt>
      <trkpt lat="45.23595" lon="5.93947">
        <ele>908.6</ele>
        <time>2020-10-13T11:58:58.000Z</time>
      </trkpt>
      <trkpt lat="45.236" lon="5.93916">
        <ele>913.14</ele>
        <time>2020-10-13T11:59:03.000Z</time>
      </trkpt>
      <trkpt lat="45.23619" lon="5.93909">
        <ele>914.17</ele>
        <time>2020-10-13T11:59:08.000Z</time>
      </trkpt>
      <trkpt lat="45.23619" lon="5.93938">
        <ele>911.53</ele>
        <time>2020-10-13T11:59:13.000Z</time>
      </trkpt>
      <trkpt lat="45.23608" lon="5.93971">
        <ele>909.96</ele>
        <time>2020-10-13T11:59:18.000Z</time>
      </trkpt>
      <trkpt lat="45.23604" lon="5.93998">
        <ele>910.41</ele>
        <time>2020-10-13T11:59:23.000Z</time>
      </trkpt>
      <trkpt lat="45.23603" lon="5.94029">
        <ele>911.82</ele>
        <time>2020-10-13T11:59:28.000Z</time>
      </trkpt>
      <trkpt lat="45.23599" lon="5.94072">
        <ele>908.76</ele>
        <time>2020-10-13T11:59:33.000Z</time>
      </trkpt>
      <trkpt lat="45.23589" lon="5.94105">
        <ele>912.66</ele>
        <time>2020-10-13T11:59:38.000Z</time>
      </trkpt>
      <trkpt lat="45.23576" lon="5.94137">
        <ele>912.27</ele>
        <time>2020-10-13T11:59:43.000Z</time>
      </trkpt>
      <trkpt lat="45.23568" lon="5.9417">
        <ele>914.97</ele>
        <time>2020-10-13T11:59:48.000Z</time>
      </trkpt>
      <trkpt lat="45.23568" lon="5.94204">
        <ele>916.93</ele>
        <time>2020-10-13T11:59:53.000Z</time>
      </trkpt>
      <trkpt lat="45.23579" lon="5.94234">
        <ele>917.73</ele>
        <time>2020-10-13T11:59:58.000Z</time>
      </trkpt>
      <trkpt lat="45.23587" lon="5.94269">
        <ele>920.61</ele>
        <time>2020-10-13T12:00:03.000Z</time>
      </trkpt>
      <trkpt lat="45.23596" lon="5.94306">
        <ele>921.06</ele>
        <time>2020-10-13T12:00:08.000Z</time>
      </trkpt>
      <trkpt lat="45.23597" lon="5.94342">
        <ele>922.5</ele>
        <time>2020-10-13T12:00:13.000Z</time>
      </trkpt>
      <trkpt lat="45.236" lon="5.94381">
        <ele>921.61</ele>
        <time>2020-10-13T12:00:18.000Z</time>
      </trkpt>
      <trkpt lat="45.23591" lon="5.94415">
        <ele>922.86</ele>
        <time>2020-10-13T12:00:23.000Z</time>
      </trkpt>
      <trkpt lat="45.23568" lon="5.9443">
        <ele>926.21</ele>
        <time>2020-10-13T12:00:28.000Z</time>
      </trkpt>
      <trkpt lat="45.23547" lon="5.9444">
        <ele>930.07</ele>
        <time>2020-10-13T12:00:33.000Z</time>
      </trkpt>
      <trkpt lat="45.23536" lon="5.94468">
        <ele>931.32</ele>
        <time>2020-10-13T12:00:38.000Z</time>
      </trkpt>
      <trkpt lat="45.2354" lon="5.94494">
        <ele>930.94</ele>
        <time>2020-10-13T12:00:43.000Z</time>
      </trkpt>
      <trkpt lat="45.23557" lon="5.94509">
        <ele>936.95</ele>
        <time>2020-10-13T12:00:48.000Z</time>
      </trkpt>
      <trkpt lat="45.2358" lon="5.94509">
        <ele>939.72</ele>
        <time>2020-10-13T12:00:53.000Z</time>
      </trkpt>
      <trkpt lat="45.23602" lon="5.94509">
        <ele>936.64</ele>
        <time>2020-10-13T12:00:58.000Z</time>
      </trkpt>
      <trkpt lat="45.23624" lon="5.94505">
        <ele>937.76</ele>
        <time>2020-10-13T12:01:03.000Z</time>
      </trkpt>
      <trkpt lat="45.23648" lon="5.94495">
        <ele>934.72</ele>
        <time>2020-10-13T12:01:08.000Z</time>
      </trkpt>
      <trkpt lat="45.23661" lon="5.94476">
        <ele>937.96</ele>
        <time>2020-10-13T12:01:13.000Z</time>
      </trkpt>
      <trkpt lat="45.23669" lon="5.94445">
        <ele>945.47</ele>
        <time>2020-10-13T12:01:18.000Z</time>
      </trkpt>
      <trkpt lat="45.2368" lon="5.94415">
        <ele>946.5</ele>
        <time>2020-10-13T12:01:23.000Z</time>
      </trkpt>
      <trkpt lat="45.2369" lon="5.94388">
        <ele>948.42</ele>
        <time>2020-10-13T12:01:28.000Z</time>
      </trkpt>
      <trkpt lat="45.23696" lon="5.94358">
        <ele>953.22</ele>
        <time>2020-10-13T12:01:33.000Z</time>
      </trkpt>
      <trkpt lat="45.23698" lon="5.94327">
        <ele>953.89</ele>
        <time>2020-10-13T12:01:38.000Z</time>
      </trkpt>
      <trkpt lat="45.23692" lon="5.94293">
        <ele>960.38</ele>
        <time>2020-10-13T12:01:43.000Z</time>
      </trkpt>
      <trkpt lat="45.23692" lon="5.94262">
        <ele>958.89</ele>
        <time>2020-10-13T12:01:48.000Z</time>
      </trkpt>
      <trkpt lat="45.23707" lon="5.94256">
        <ele>959.14</ele>
        <time>2020-10-13T12:01:53.000Z</time>
      </trkpt>
      <trkpt lat="45.23714" lon="5.94284">
        <ele>958.62</ele>
        <time>2020-10-13T12:01:58.000Z</time>
      </trkpt>
      <trkpt lat="45.23713" lon="5.94324">
        <ele>959.63</ele>
        <time>2020-10-13T12:02:03.000Z</time>
      </trkpt>
      <trkpt lat="45.2372" lon="5.9435">
        <ele>958.67</ele>
        <time>2020-10-13T12:02:08.000Z</time>
      </trkpt>
      <trkpt lat="45.2373" lon="5.94376">
        <ele>953.06</ele>
        <time>2020-10-13T12:02:13.000Z</time>
      </trkpt>
      <trkpt lat="45.23734" lon="5.9441">
        <ele>955</ele>
        <time>2020-10-13T12:02:18.000Z</time>
      </trkpt>
      <trkpt lat="45.23737" lon="5.94444">
        <ele>960.41</ele>
        <time>2020-10-13T12:02:23.000Z</time>
      </trkpt>
      <trkpt lat="45.23741" lon="5.94477">
        <ele>960.48</ele>
        <time>2020-10-13T12:02:28.000Z</time>
      </trkpt>
      <trkpt lat="45.23747" lon="5.94504">
        <ele>962.13</ele>
        <time>2020-10-13T12:02:33.000Z</time>
      </trkpt>
      <trkpt lat="45.23758" lon="5.94533">
        <ele>965.76</ele>
        <time>2020-10-13T12:02:38.000Z</time>
      </trkpt>
      <trkpt lat="45.23769" lon="5.94558">
        <ele>970.17</ele>
        <time>2020-10-13T12:02:43.000Z</time>
      </trkpt>
      <trkpt lat="45.2378" lon="5.94589">
        <ele>974.1</ele>
        <time>2020-10-13T12:02:48.000Z</time>
      </trkpt>
      <trkpt lat="45.23793" lon="5.94618">
        <ele>973.77</ele>
        <time>2020-10-13T12:02:53.000Z</time>
      </trkpt>
      <trkpt lat="45.23804" lon="5.9465">
        <ele>978.96</ele>
        <time>2020-10-13T12:02:58.000Z</time>
      </trkpt>
      <trkpt lat="45.23815" lon="5.94681">
        <ele>980.15</ele>
        <time>2020-10-13T12:03:03.000Z</time>
      </trkpt>
      <trkpt lat="45.23824" lon="5.94712">
        <ele>978.36</ele>
        <time>2020-10-13T12:03:08.000Z</time>
      </trkpt>
      <trkpt lat="45.23834" lon="5.94743">
        <ele>979.07</ele>
        <time>2020-10-13T12:03:13.000Z</time>
      </trkpt>
      <trkpt lat="45.23839" lon="5.94776">
        <ele>979.68</ele>
        <time>2020-10-13T12:03:18.000Z</time>
      </trkpt>
      <trkpt lat="45.23843" lon="5.94808">
        <ele>984.71</ele>
        <time>2020-10-13T12:03:23.000Z</time>
      </trkpt>
      <trkpt lat="45.23845" lon="5.94837">
        <ele>985.16</ele>
        <time>2020-10-13T12:03:28.000Z</time>
      </trkpt>
      <trkpt lat="45.23839" lon="5.9487">
        <ele>984.96</ele>
        <time>2020-10-13T12:03:33.000Z</time>
      </trkpt>
      <trkpt lat="45.23843" lon="5.949">
        <ele>984.19</ele>
        <time>2020-10-13T12:03:38.000Z</time>
      </trkpt>
      <trkpt lat="45.23856" lon="5.94932">
        <ele>979.9</ele>
        <time>2020-10-13T12:03:43.000Z</time>
      </trkpt>
      <trkpt lat="45.23868" lon="5.94957">
        <ele>980.52</ele>
        <time>2020-10-13T12:03:48.000Z</time>
      </trkpt>
      <trkpt lat="45.23877" lon="5.94981">
        <ele>982.39</ele>
        <time>2020-10-13T12:03:53.000Z</time>
      </trkpt>
      <trkpt lat="45.23892" lon="5.95001">
        <ele>984.74</ele>
        <time>2020-10-13T12:03:58.000Z</time>
      </trkpt>
      <trkpt lat="45.23907" lon="5.95025">
        <ele>987.87</ele>
        <time>2020-10-13T12:04:03.000Z</time>
      </trkpt>
      <trkpt lat="45.23924" lon="5.95065">
        <ele>988.64</ele>
        <time>2020-10-13T12:04:08.000Z</time>
      </trkpt>
      <trkpt lat="45.23943" lon="5.95094">
        <ele>992.29</ele>
        <time>2020-10-13T12:04:13.000Z</time>
      </trkpt>
      <trkpt lat="45.2396" lon="5.95111">
        <ele>988.31</ele>
        <time>2020-10-13T12:04:18.000Z</time>
      </trkpt>
      <trkpt lat="45.23963" lon="5.95125">
        <ele>986.08</ele>
        <time>2020-10-13T12:04:23.000Z</time>
      </trkpt>
      <trkpt lat="45.23957" lon="5.95134">
        <ele>991.64</ele>
        <time>2020-10-13T12:04:30.000Z</time>
      </trkpt>
      <trkpt lat="45.23948" lon="5.95134">
        <ele>1005.13</ele>
        <time>2020-10-13T12:05:19.000Z</time>
      </trkpt>
      <trkpt lat="45.23931" lon="5.95104">
        <ele>1003.35</ele>
        <time>2020-10-13T12:05:24.000Z</time>
      </trkpt>
      <trkpt lat="45.23914" lon="5.95069">
        <ele>1002.5</ele>
        <time>2020-10-13T12:05:29.000Z</time>
      </trkpt>
      <trkpt lat="45.23895" lon="5.95034">
        <ele>1002.23</ele>
        <time>2020-10-13T12:05:34.000Z</time>
      </trkpt>
      <trkpt lat="45.2387" lon="5.94977">
        <ele>1003.44</ele>
        <time>2020-10-13T12:05:39.000Z</time>
      </trkpt>
      <trkpt lat="45.23853" lon="5.94913">
        <ele>1000.9</ele>
        <time>2020-10-13T12:05:44.000Z</time>
      </trkpt>
      <trkpt lat="45.23851" lon="5.94842">
        <ele>999.82</ele>
        <time>2020-10-13T12:05:49.000Z</time>
      </trkpt>
      <trkpt lat="45.23841" lon="5.9477">
        <ele>998.41</ele>
        <time>2020-10-13T12:05:54.000Z</time>
      </trkpt>
      <trkpt lat="45.23819" lon="5.94695">
        <ele>995.96</ele>
        <time>2020-10-13T12:05:59.000Z</time>
      </trkpt>
      <trkpt lat="45.23788" lon="5.94623">
        <ele>992.68</ele>
        <time>2020-10-13T12:06:04.000Z</time>
      </trkpt>
      <trkpt lat="45.23758" lon="5.94548">
        <ele>989.81</ele>
        <time>2020-10-13T12:06:09.000Z</time>
      </trkpt>
      <trkpt lat="45.23733" lon="5.94462">
        <ele>989.37</ele>
        <time>2020-10-13T12:06:14.000Z</time>
      </trkpt>
      <trkpt lat="45.23724" lon="5.94372">
        <ele>984.05</ele>
        <time>2020-10-13T12:06:19.000Z</time>
      </trkpt>
      <trkpt lat="45.23705" lon="5.94285">
        <ele>979.24</ele>
        <time>2020-10-13T12:06:24.000Z</time>
      </trkpt>
      <trkpt lat="45.23693" lon="5.94245">
        <ele>970.74</ele>
        <time>2020-10-13T12:06:29.000Z</time>
      </trkpt>
      <trkpt lat="45.2369" lon="5.94302">
        <ele>963.17</ele>
        <time>2020-10-13T12:06:34.000Z</time>
      </trkpt>
      <trkpt lat="45.23685" lon="5.94381">
        <ele>961.26</ele>
        <time>2020-10-13T12:06:39.000Z</time>
      </trkpt>
      <trkpt lat="45.23661" lon="5.94457">
        <ele>955.47</ele>
        <time>2020-10-13T12:06:44.000Z</time>
      </trkpt>
      <trkpt lat="45.23616" lon="5.94503">
        <ele>949.97</ele>
        <time>2020-10-13T12:06:49.000Z</time>
      </trkpt>
      <trkpt lat="45.23554" lon="5.94515">
        <ele>946.17</ele>
        <time>2020-10-13T12:06:54.000Z</time>
      </trkpt>
      <trkpt lat="45.23535" lon="5.94463">
        <ele>943.32</ele>
        <time>2020-10-13T12:06:59.000Z</time>
      </trkpt>
      <trkpt lat="45.23571" lon="5.94435">
        <ele>938.11</ele>
        <time>2020-10-13T12:07:04.000Z</time>
      </trkpt>
      <trkpt lat="45.23597" lon="5.94383">
        <ele>936.4</ele>
        <time>2020-10-13T12:07:09.000Z</time>
      </trkpt>
      <trkpt lat="45.23594" lon="5.94306">
        <ele>931.38</ele>
        <time>2020-10-13T12:07:14.000Z</time>
      </trkpt>
      <trkpt lat="45.23575" lon="5.94234">
        <ele>925.09</ele>
        <time>2020-10-13T12:07:19.000Z</time>
      </trkpt>
      <trkpt lat="45.23582" lon="5.94154">
        <ele>921.08</ele>
        <time>2020-10-13T12:07:24.000Z</time>
      </trkpt>
      <trkpt lat="45.23603" lon="5.94081">
        <ele>920.57</ele>
        <time>2020-10-13T12:07:29.000Z</time>
      </trkpt>
      <trkpt lat="45.23609" lon="5.93998">
        <ele>916.71</ele>
        <time>2020-10-13T12:07:34.000Z</time>
      </trkpt>
      <trkpt lat="45.23626" lon="5.93925">
        <ele>914.07</ele>
        <time>2020-10-13T12:07:39.000Z</time>
      </trkpt>
      <trkpt lat="45.23604" lon="5.93914">
        <ele>911.46</ele>
        <time>2020-10-13T12:07:44.000Z</time>
      </trkpt>
      <trkpt lat="45.23593" lon="5.9398">
        <ele>908.52</ele>
        <time>2020-10-13T12:07:49.000Z</time>
      </trkpt>
      <trkpt lat="45.23571" lon="5.94043">
        <ele>905.19</ele>
        <time>2020-10-13T12:07:54.000Z</time>
      </trkpt>
      <trkpt lat="45.2353" lon="5.94093">
        <ele>903.09</ele>
        <time>2020-10-13T12:07:59.000Z</time>
      </trkpt>
      <trkpt lat="45.23498" lon="5.94133">
        <ele>904.34</ele>
        <time>2020-10-13T12:08:04.000Z</time>
      </trkpt>
      <trkpt lat="45.23499" lon="5.94074">
        <ele>899.71</ele>
        <time>2020-10-13T12:08:09.000Z</time>
      </trkpt>
      <trkpt lat="45.23533" lon="5.94008">
        <ele>896.24</ele>
        <time>2020-10-13T12:08:14.000Z</time>
      </trkpt>
      <trkpt lat="45.23527" lon="5.9393">
        <ele>892.67</ele>
        <time>2020-10-13T12:08:19.000Z</time>
      </trkpt>
      <trkpt lat="45.23507" lon="5.9386">
        <ele>889.03</ele>
        <time>2020-10-13T12:08:24.000Z</time>
      </trkpt>
      <trkpt lat="45.23506" lon="5.93774">
        <ele>881.86</ele>
        <time>2020-10-13T12:08:29.000Z</time>
      </trkpt>
      <trkpt lat="45.23512" lon="5.93686">
        <ele>876.88</ele>
        <time>2020-10-13T12:08:34.000Z</time>
      </trkpt>
      <trkpt lat="45.23503" lon="5.936">
        <ele>869.93</ele>
        <time>2020-10-13T12:08:39.000Z</time>
      </trkpt>
      <trkpt lat="45.2352" lon="5.93514">
        <ele>863.18</ele>
        <time>2020-10-13T12:08:44.000Z</time>
      </trkpt>
      <trkpt lat="45.23546" lon="5.93438">
        <ele>856.21</ele>
        <time>2020-10-13T12:08:49.000Z</time>
      </trkpt>
      <trkpt lat="45.23565" lon="5.93356">
        <ele>853.61</ele>
        <time>2020-10-13T12:08:54.000Z</time>
      </trkpt>
      <trkpt lat="45.23588" lon="5.93273">
        <ele>848</ele>
        <time>2020-10-13T12:08:59.000Z</time>
      </trkpt>
      <trkpt lat="45.23625" lon="5.93208">
        <ele>845.46</ele>
        <time>2020-10-13T12:09:04.000Z</time>
      </trkpt>
      <trkpt lat="45.23671" lon="5.93147">
        <ele>841.48</ele>
        <time>2020-10-13T12:09:09.000Z</time>
      </trkpt>
      <trkpt lat="45.23722" lon="5.9308">
        <ele>831.47</ele>
        <time>2020-10-13T12:09:14.000Z</time>
      </trkpt>
      <trkpt lat="45.2376" lon="5.93012">
        <ele>826.86</ele>
        <time>2020-10-13T12:09:19.000Z</time>
      </trkpt>
      <trkpt lat="45.23783" lon="5.92932">
        <ele>822.48</ele>
        <time>2020-10-13T12:09:24.000Z</time>
      </trkpt>
      <trkpt lat="45.23811" lon="5.92878">
        <ele>817.96</ele>
        <time>2020-10-13T12:09:29.000Z</time>
      </trkpt>
      <trkpt lat="45.23786" lon="5.92897">
        <ele>811.44</ele>
        <time>2020-10-13T12:09:34.000Z</time>
      </trkpt>
      <trkpt lat="45.2375" lon="5.92954">
        <ele>804.52</ele>
        <time>2020-10-13T12:09:39.000Z</time>
      </trkpt>
      <trkpt lat="45.23706" lon="5.93004">
        <ele>797.16</ele>
        <time>2020-10-13T12:09:44.000Z</time>
      </trkpt>
      <trkpt lat="45.23645" lon="5.93037">
        <ele>789.43</ele>
        <time>2020-10-13T12:09:49.000Z</time>
      </trkpt>
      <trkpt lat="45.23588" lon="5.9306">
        <ele>786.19</ele>
        <time>2020-10-13T12:09:54.000Z</time>
      </trkpt>
      <trkpt lat="45.23538" lon="5.93059">
        <ele>784.53</ele>
        <time>2020-10-13T12:09:59.000Z</time>
      </trkpt>
      <trkpt lat="45.23497" lon="5.93097">
        <ele>782</ele>
        <time>2020-10-13T12:10:04.000Z</time>
      </trkpt>
      <trkpt lat="45.23453" lon="5.93154">
        <ele>775.07</ele>
        <time>2020-10-13T12:10:09.000Z</time>
      </trkpt>
      <trkpt lat="45.23398" lon="5.93212">
        <ele>770.16</ele>
        <time>2020-10-13T12:10:14.000Z</time>
      </trkpt>
      <trkpt lat="45.23334" lon="5.93266">
        <ele>764.24</ele>
        <time>2020-10-13T12:10:19.000Z</time>
      </trkpt>
      <trkpt lat="45.23269" lon="5.93318">
        <ele>758.62</ele>
        <time>2020-10-13T12:10:24.000Z</time>
      </trkpt>
      <trkpt lat="45.23215" lon="5.93387">
        <ele>754.3</ele>
        <time>2020-10-13T12:10:29.000Z</time>
      </trkpt>
      <trkpt lat="45.2317" lon="5.9344">
        <ele>748.1</ele>
        <time>2020-10-13T12:10:34.000Z</time>
      </trkpt>
      <trkpt lat="45.23111" lon="5.93422">
        <ele>746.79</ele>
        <time>2020-10-13T12:10:39.000Z</time>
      </trkpt>
      <trkpt lat="45.23056" lon="5.93396">
        <ele>744.48</ele>
        <time>2020-10-13T12:10:44.000Z</time>
      </trkpt>
      <trkpt lat="45.2302" lon="5.93355">
        <ele>746.14</ele>
        <time>2020-10-13T12:10:49.000Z</time>
      </trkpt>
      <trkpt lat="45.22991" lon="5.9335">
        <ele>750.21</ele>
        <time>2020-10-13T12:10:54.000Z</time>
      </trkpt>
      <trkpt lat="45.22969" lon="5.93346">
        <ele>751.82</ele>
        <time>2020-10-13T12:10:59.000Z</time>
      </trkpt>
      <trkpt lat="45.22941" lon="5.93347">
        <ele>753.6</ele>
        <time>2020-10-13T12:11:04.000Z</time>
      </trkpt>
      <trkpt lat="45.22912" lon="5.93355">
        <ele>754.53</ele>
        <time>2020-10-13T12:11:09.000Z</time>
      </trkpt>
      <trkpt lat="45.22891" lon="5.93344">
        <ele>755.58</ele>
        <time>2020-10-13T12:11:14.000Z</time>
      </trkpt>
      <trkpt lat="45.22866" lon="5.93331">
        <ele>758.86</ele>
        <time>2020-10-13T12:11:19.000Z</time>
      </trkpt>
      <trkpt lat="45.22843" lon="5.93331">
        <ele>759.35</ele>
        <time>2020-10-13T12:11:24.000Z</time>
      </trkpt>
      <trkpt lat="45.22821" lon="5.9333">
        <ele>760.08</ele>
        <time>2020-10-13T12:11:29.000Z</time>
      </trkpt>
      <trkpt lat="45.22799" lon="5.93332">
        <ele>762.41</ele>
        <time>2020-10-13T12:11:34.000Z</time>
      </trkpt>
      <trkpt lat="45.22776" lon="5.93346">
        <ele>762.95</ele>
        <time>2020-10-13T12:11:39.000Z</time>
      </trkpt>
      <trkpt lat="45.22754" lon="5.93368">
        <ele>763.89</ele>
        <time>2020-10-13T12:11:44.000Z</time>
      </trkpt>
      <trkpt lat="45.22735" lon="5.93393">
        <ele>762.1</ele>
        <time>2020-10-13T12:11:49.000Z</time>
      </trkpt>
      <trkpt lat="45.22711" lon="5.9342">
        <ele>764.15</ele>
        <time>2020-10-13T12:11:54.000Z</time>
      </trkpt>
      <trkpt lat="45.22686" lon="5.93438">
        <ele>764.25</ele>
        <time>2020-10-13T12:11:59.000Z</time>
      </trkpt>
      <trkpt lat="45.22662" lon="5.93452">
        <ele>764.06</ele>
        <time>2020-10-13T12:12:04.000Z</time>
      </trkpt>
      <trkpt lat="45.22639" lon="5.93464">
        <ele>765.09</ele>
        <time>2020-10-13T12:12:09.000Z</time>
      </trkpt>
      <trkpt lat="45.22614" lon="5.93465">
        <ele>765.98</ele>
        <time>2020-10-13T12:12:14.000Z</time>
      </trkpt>
      <trkpt lat="45.22585" lon="5.93462">
        <ele>767.78</ele>
        <time>2020-10-13T12:12:19.000Z</time>
      </trkpt>
      <trkpt lat="45.22548" lon="5.93456">
        <ele>765.49</ele>
        <time>2020-10-13T12:12:24.000Z</time>
      </trkpt>
      <trkpt lat="45.22508" lon="5.93446">
        <ele>766.67</ele>
        <time>2020-10-13T12:12:29.000Z</time>
      </trkpt>
      <trkpt lat="45.22466" lon="5.93414">
        <ele>763.66</ele>
        <time>2020-10-13T12:12:34.000Z</time>
      </trkpt>
      <trkpt lat="45.22423" lon="5.93368">
        <ele>759.63</ele>
        <time>2020-10-13T12:12:39.000Z</time>
      </trkpt>
      <trkpt lat="45.22369" lon="5.9334">
        <ele>758.63</ele>
        <time>2020-10-13T12:12:44.000Z</time>
      </trkpt>
      <trkpt lat="45.22311" lon="5.93311">
        <ele>754.66</ele>
        <time>2020-10-13T12:12:49.000Z</time>
      </trkpt>
      <trkpt lat="45.22256" lon="5.93293">
        <ele>755.11</ele>
        <time>2020-10-13T12:12:54.000Z</time>
      </trkpt>
      <trkpt lat="45.22216" lon="5.93333">
        <ele>750.61</ele>
        <time>2020-10-13T12:12:59.000Z</time>
      </trkpt>
      <trkpt lat="45.2217" lon="5.93346">
        <ele>748.33</ele>
        <time>2020-10-13T12:13:04.000Z</time>
      </trkpt>
      <trkpt lat="45.22133" lon="5.93325">
        <ele>748.14</ele>
        <time>2020-10-13T12:13:09.000Z</time>
      </trkpt>
      <trkpt lat="45.22099" lon="5.93304">
        <ele>750.4</ele>
        <time>2020-10-13T12:13:14.000Z</time>
      </trkpt>
      <trkpt lat="45.22074" lon="5.93281">
        <ele>751.34</ele>
        <time>2020-10-13T12:13:19.000Z</time>
      </trkpt>
      <trkpt lat="45.22049" lon="5.93257">
        <ele>751.55</ele>
        <time>2020-10-13T12:13:24.000Z</time>
      </trkpt>
      <trkpt lat="45.22022" lon="5.93229">
        <ele>751.58</ele>
        <time>2020-10-13T12:13:29.000Z</time>
      </trkpt>
      <trkpt lat="45.2199" lon="5.93219">
        <ele>752.53</ele>
        <time>2020-10-13T12:13:34.000Z</time>
      </trkpt>
      <trkpt lat="45.21964" lon="5.93226">
        <ele>750.66</ele>
        <time>2020-10-13T12:13:39.000Z</time>
      </trkpt>
      <trkpt lat="45.21937" lon="5.93251">
        <ele>750.87</ele>
        <time>2020-10-13T12:13:44.000Z</time>
      </trkpt>
      <trkpt lat="45.21906" lon="5.93288">
        <ele>747.76</ele>
        <time>2020-10-13T12:13:49.000Z</time>
      </trkpt>
      <trkpt lat="45.21883" lon="5.93312">
        <ele>746.04</ele>
        <time>2020-10-13T12:13:54.000Z</time>
      </trkpt>
      <trkpt lat="45.21846" lon="5.93336">
        <ele>750.01</ele>
        <time>2020-10-13T12:13:59.000Z</time>
      </trkpt>
      <trkpt lat="45.21811" lon="5.93358">
        <ele>754.54</ele>
        <time>2020-10-13T12:14:04.000Z</time>
      </trkpt>
      <trkpt lat="45.21781" lon="5.93373">
        <ele>756.88</ele>
        <time>2020-10-13T12:14:09.000Z</time>
      </trkpt>
      <trkpt lat="45.21754" lon="5.93384">
        <ele>755.66</ele>
        <time>2020-10-13T12:14:14.000Z</time>
      </trkpt>
      <trkpt lat="45.2173" lon="5.93378">
        <ele>755.22</ele>
        <time>2020-10-13T12:14:19.000Z</time>
      </trkpt>
      <trkpt lat="45.21704" lon="5.93372">
        <ele>757.42</ele>
        <time>2020-10-13T12:14:24.000Z</time>
      </trkpt>
      <trkpt lat="45.21675" lon="5.93365">
        <ele>757.9</ele>
        <time>2020-10-13T12:14:29.000Z</time>
      </trkpt>
      <trkpt lat="45.21653" lon="5.93366">
        <ele>757.5</ele>
        <time>2020-10-13T12:14:34.000Z</time>
      </trkpt>
      <trkpt lat="45.21616" lon="5.93403">
        <ele>756.23</ele>
        <time>2020-10-13T12:14:39.000Z</time>
      </trkpt>
      <trkpt lat="45.21588" lon="5.93436">
        <ele>756.46</ele>
        <time>2020-10-13T12:14:44.000Z</time>
      </trkpt>
      <trkpt lat="45.2156" lon="5.9347">
        <ele>756.26</ele>
        <time>2020-10-13T12:14:49.000Z</time>
      </trkpt>
      <trkpt lat="45.21523" lon="5.93502">
        <ele>755.79</ele>
        <time>2020-10-13T12:14:54.000Z</time>
      </trkpt>
      <trkpt lat="45.21487" lon="5.93516">
        <ele>757.36</ele>
        <time>2020-10-13T12:14:59.000Z</time>
      </trkpt>
      <trkpt lat="45.2145" lon="5.93522">
        <ele>756.81</ele>
        <time>2020-10-13T12:15:04.000Z</time>
      </trkpt>
      <trkpt lat="45.21421" lon="5.93503">
        <ele>760.67</ele>
        <time>2020-10-13T12:15:09.000Z</time>
      </trkpt>
      <trkpt lat="45.21407" lon="5.93473">
        <ele>762.92</ele>
        <time>2020-10-13T12:15:14.000Z</time>
      </trkpt>
      <trkpt lat="45.21391" lon="5.93438">
        <ele>764.35</ele>
        <time>2020-10-13T12:15:19.000Z</time>
      </trkpt>
      <trkpt lat="45.21383" lon="5.93395">
        <ele>765.52</ele>
        <time>2020-10-13T12:15:24.000Z</time>
      </trkpt>
      <trkpt lat="45.21371" lon="5.93353">
        <ele>764.59</ele>
        <time>2020-10-13T12:15:29.000Z</time>
      </trkpt>
      <trkpt lat="45.21375" lon="5.93309">
        <ele>765.15</ele>
        <time>2020-10-13T12:15:34.000Z</time>
      </trkpt>
      <trkpt lat="45.21411" lon="5.93284">
        <ele>771.66</ele>
        <time>2020-10-13T12:15:39.000Z</time>
      </trkpt>
      <trkpt lat="45.21439" lon="5.93268">
        <ele>771.13</ele>
        <time>2020-10-13T12:15:44.000Z</time>
      </trkpt>
      <trkpt lat="45.21469" lon="5.9326">
        <ele>768.9</ele>
        <time>2020-10-13T12:15:49.000Z</time>
      </trkpt>
      <trkpt lat="45.21497" lon="5.93248">
        <ele>764.35</ele>
        <time>2020-10-13T12:15:54.000Z</time>
      </trkpt>
      <trkpt lat="45.2153" lon="5.93228">
        <ele>762.51</ele>
        <time>2020-10-13T12:15:59.000Z</time>
      </trkpt>
      <trkpt lat="45.21563" lon="5.93209">
        <ele>763.94</ele>
        <time>2020-10-13T12:16:04.000Z</time>
      </trkpt>
      <trkpt lat="45.21592" lon="5.9319">
        <ele>761.88</ele>
        <time>2020-10-13T12:16:09.000Z</time>
      </trkpt>
      <trkpt lat="45.21625" lon="5.93155">
        <ele>760.96</ele>
        <time>2020-10-13T12:16:14.000Z</time>
      </trkpt>
      <trkpt lat="45.21654" lon="5.93117">
        <ele>760.19</ele>
        <time>2020-10-13T12:16:19.000Z</time>
      </trkpt>
      <trkpt lat="45.21683" lon="5.93086">
        <ele>759.86</ele>
        <time>2020-10-13T12:16:24.000Z</time>
      </trkpt>
      <trkpt lat="45.21723" lon="5.93062">
        <ele>755.98</ele>
        <time>2020-10-13T12:16:29.000Z</time>
      </trkpt>
      <trkpt lat="45.21771" lon="5.93036">
        <ele>753.51</ele>
        <time>2020-10-13T12:16:34.000Z</time>
      </trkpt>
      <trkpt lat="45.21818" lon="5.93">
        <ele>752.7</ele>
        <time>2020-10-13T12:16:39.000Z</time>
      </trkpt>
      <trkpt lat="45.21855" lon="5.92964">
        <ele>750.6</ele>
        <time>2020-10-13T12:16:44.000Z</time>
      </trkpt>
      <trkpt lat="45.21885" lon="5.92926">
        <ele>749.21</ele>
        <time>2020-10-13T12:16:49.000Z</time>
      </trkpt>
      <trkpt lat="45.21914" lon="5.92896">
        <ele>749.58</ele>
        <time>2020-10-13T12:16:54.000Z</time>
      </trkpt>
      <trkpt lat="45.21943" lon="5.92879">
        <ele>749.22</ele>
        <time>2020-10-13T12:16:59.000Z</time>
      </trkpt>
      <trkpt lat="45.21974" lon="5.9286">
        <ele>748.68</ele>
        <time>2020-10-13T12:17:04.000Z</time>
      </trkpt>
      <trkpt lat="45.22007" lon="5.92838">
        <ele>750.83</ele>
        <time>2020-10-13T12:17:09.000Z</time>
      </trkpt>
      <trkpt lat="45.22037" lon="5.92819">
        <ele>749.46</ele>
        <time>2020-10-13T12:17:14.000Z</time>
      </trkpt>
      <trkpt lat="45.22071" lon="5.92806">
        <ele>749.02</ele>
        <time>2020-10-13T12:17:19.000Z</time>
      </trkpt>
      <trkpt lat="45.22102" lon="5.92801">
        <ele>748.46</ele>
        <time>2020-10-13T12:17:24.000Z</time>
      </trkpt>
      <trkpt lat="45.22134" lon="5.92797">
        <ele>746.08</ele>
        <time>2020-10-13T12:17:29.000Z</time>
      </trkpt>
      <trkpt lat="45.22168" lon="5.92794">
        <ele>748.05</ele>
        <time>2020-10-13T12:17:34.000Z</time>
      </trkpt>
      <trkpt lat="45.22203" lon="5.92781">
        <ele>750.96</ele>
        <time>2020-10-13T12:17:39.000Z</time>
      </trkpt>
      <trkpt lat="45.22238" lon="5.92772">
        <ele>751.4</ele>
        <time>2020-10-13T12:17:44.000Z</time>
      </trkpt>
      <trkpt lat="45.22275" lon="5.92763">
        <ele>750.56</ele>
        <time>2020-10-13T12:17:49.000Z</time>
      </trkpt>
      <trkpt lat="45.22314" lon="5.92762">
        <ele>750.38</ele>
        <time>2020-10-13T12:17:54.000Z</time>
      </trkpt>
      <trkpt lat="45.22351" lon="5.92776">
        <ele>750.09</ele>
        <time>2020-10-13T12:17:59.000Z</time>
      </trkpt>
      <trkpt lat="45.22389" lon="5.92786">
        <ele>744.8</ele>
        <time>2020-10-13T12:18:04.000Z</time>
      </trkpt>
      <trkpt lat="45.22431" lon="5.92783">
        <ele>743.83</ele>
        <time>2020-10-13T12:18:09.000Z</time>
      </trkpt>
      <trkpt lat="45.22471" lon="5.92776">
        <ele>743.58</ele>
        <time>2020-10-13T12:18:14.000Z</time>
      </trkpt>
      <trkpt lat="45.22511" lon="5.9277">
        <ele>742.47</ele>
        <time>2020-10-13T12:18:19.000Z</time>
      </trkpt>
      <trkpt lat="45.22544" lon="5.92739">
        <ele>741.62</ele>
        <time>2020-10-13T12:18:24.000Z</time>
      </trkpt>
      <trkpt lat="45.2257" lon="5.92708">
        <ele>741.91</ele>
        <time>2020-10-13T12:18:29.000Z</time>
      </trkpt>
      <trkpt lat="45.22584" lon="5.92688">
        <ele>740.35</ele>
        <time>2020-10-13T12:18:34.000Z</time>
      </trkpt>
      <trkpt lat="45.22599" lon="5.92655">
        <ele>740.62</ele>
        <time>2020-10-13T12:18:39.000Z</time>
      </trkpt>
      <trkpt lat="45.22599" lon="5.9262">
        <ele>743.66</ele>
        <time>2020-10-13T12:18:44.000Z</time>
      </trkpt>
      <trkpt lat="45.22595" lon="5.92581">
        <ele>743.79</ele>
        <time>2020-10-13T12:18:49.000Z</time>
      </trkpt>
      <trkpt lat="45.22595" lon="5.92546">
        <ele>746.78</ele>
        <time>2020-10-13T12:18:54.000Z</time>
      </trkpt>
      <trkpt lat="45.226" lon="5.92511">
        <ele>744.7</ele>
        <time>2020-10-13T12:18:59.000Z</time>
      </trkpt>
      <trkpt lat="45.22606" lon="5.92476">
        <ele>744.68</ele>
        <time>2020-10-13T12:19:04.000Z</time>
      </trkpt>
      <trkpt lat="45.22613" lon="5.92437">
        <ele>745.82</ele>
        <time>2020-10-13T12:19:09.000Z</time>
      </trkpt>
      <trkpt lat="45.22617" lon="5.92401">
        <ele>745.47</ele>
        <time>2020-10-13T12:19:14.000Z</time>
      </trkpt>
      <trkpt lat="45.22627" lon="5.92363">
        <ele>747.85</ele>
        <time>2020-10-13T12:19:19.000Z</time>
      </trkpt>
      <trkpt lat="45.22642" lon="5.9233">
        <ele>749.79</ele>
        <time>2020-10-13T12:19:24.000Z</time>
      </trkpt>
      <trkpt lat="45.22657" lon="5.92287">
        <ele>744.72</ele>
        <time>2020-10-13T12:19:29.000Z</time>
      </trkpt>
      <trkpt lat="45.22674" lon="5.92251">
        <ele>745.86</ele>
        <time>2020-10-13T12:19:34.000Z</time>
      </trkpt>
      <trkpt lat="45.22701" lon="5.92211">
        <ele>749.47</ele>
        <time>2020-10-13T12:19:39.000Z</time>
      </trkpt>
      <trkpt lat="45.2273" lon="5.92162">
        <ele>751.18</ele>
        <time>2020-10-13T12:19:44.000Z</time>
      </trkpt>
      <trkpt lat="45.2275" lon="5.9211">
        <ele>749.2</ele>
        <time>2020-10-13T12:19:49.000Z</time>
      </trkpt>
      <trkpt lat="45.22775" lon="5.92054">
        <ele>746.52</ele>
        <time>2020-10-13T12:19:54.000Z</time>
      </trkpt>
      <trkpt lat="45.22772" lon="5.92">
        <ele>745.77</ele>
        <time>2020-10-13T12:19:59.000Z</time>
      </trkpt>
      <trkpt lat="45.22791" lon="5.91953">
        <ele>743.45</ele>
        <time>2020-10-13T12:20:04.000Z</time>
      </trkpt>
      <trkpt lat="45.22826" lon="5.91942">
        <ele>746.77</ele>
        <time>2020-10-13T12:20:09.000Z</time>
      </trkpt>
      <trkpt lat="45.22851" lon="5.91925">
        <ele>745.27</ele>
        <time>2020-10-13T12:20:14.000Z</time>
      </trkpt>
      <trkpt lat="45.22877" lon="5.91897">
        <ele>745.2</ele>
        <time>2020-10-13T12:20:19.000Z</time>
      </trkpt>
      <trkpt lat="45.229" lon="5.91868">
        <ele>744.11</ele>
        <time>2020-10-13T12:20:24.000Z</time>
      </trkpt>
      <trkpt lat="45.22919" lon="5.91837">
        <ele>743.92</ele>
        <time>2020-10-13T12:20:29.000Z</time>
      </trkpt>
      <trkpt lat="45.22942" lon="5.91802">
        <ele>743.58</ele>
        <time>2020-10-13T12:20:34.000Z</time>
      </trkpt>
      <trkpt lat="45.22964" lon="5.91767">
        <ele>744.95</ele>
        <time>2020-10-13T12:20:39.000Z</time>
      </trkpt>
      <trkpt lat="45.22978" lon="5.91735">
        <ele>745.32</ele>
        <time>2020-10-13T12:20:44.000Z</time>
      </trkpt>
      <trkpt lat="45.22987" lon="5.91694">
        <ele>743.42</ele>
        <time>2020-10-13T12:20:49.000Z</time>
      </trkpt>
      <trkpt lat="45.22993" lon="5.91654">
        <ele>745.34</ele>
        <time>2020-10-13T12:20:54.000Z</time>
      </trkpt>
      <trkpt lat="45.2299" lon="5.91612">
        <ele>738.67</ele>
        <time>2020-10-13T12:20:59.000Z</time>
      </trkpt>
      <trkpt lat="45.22976" lon="5.91569">
        <ele>741.22</ele>
        <time>2020-10-13T12:21:04.000Z</time>
      </trkpt>
      <trkpt lat="45.22955" lon="5.91532">
        <ele>742.21</ele>
        <time>2020-10-13T12:21:09.000Z</time>
      </trkpt>
      <trkpt lat="45.22956" lon="5.91486">
        <ele>743.97</ele>
        <time>2020-10-13T12:21:14.000Z</time>
      </trkpt>
      <trkpt lat="45.2296" lon="5.91442">
        <ele>744.48</ele>
        <time>2020-10-13T12:21:19.000Z</time>
      </trkpt>
      <trkpt lat="45.22979" lon="5.91402">
        <ele>743.26</ele>
        <time>2020-10-13T12:21:24.000Z</time>
      </trkpt>
      <trkpt lat="45.22994" lon="5.91366">
        <ele>743.85</ele>
        <time>2020-10-13T12:21:29.000Z</time>
      </trkpt>
      <trkpt lat="45.2302" lon="5.91317">
        <ele>742.46</ele>
        <time>2020-10-13T12:21:34.000Z</time>
      </trkpt>
      <trkpt lat="45.23051" lon="5.91274">
        <ele>741.16</ele>
        <time>2020-10-13T12:21:39.000Z</time>
      </trkpt>
      <trkpt lat="45.23091" lon="5.91238">
        <ele>739.09</ele>
        <time>2020-10-13T12:21:44.000Z</time>
      </trkpt>
      <trkpt lat="45.23144" lon="5.91205">
        <ele>740.41</ele>
        <time>2020-10-13T12:21:49.000Z</time>
      </trkpt>
      <trkpt lat="45.23197" lon="5.91169">
        <ele>740.94</ele>
        <time>2020-10-13T12:21:54.000Z</time>
      </trkpt>
      <trkpt lat="45.23233" lon="5.91092">
        <ele>741.99</ele>
        <time>2020-10-13T12:21:59.000Z</time>
      </trkpt>
      <trkpt lat="45.23278" lon="5.91032">
        <ele>738.41</ele>
        <time>2020-10-13T12:22:04.000Z</time>
      </trkpt>
      <trkpt lat="45.23325" lon="5.90967">
        <ele>733.84</ele>
        <time>2020-10-13T12:22:09.000Z</time>
      </trkpt>
      <trkpt lat="45.23358" lon="5.9089">
        <ele>730.04</ele>
        <time>2020-10-13T12:22:14.000Z</time>
      </trkpt>
      <trkpt lat="45.23388" lon="5.908">
        <ele>725.45</ele>
        <time>2020-10-13T12:22:19.000Z</time>
      </trkpt>
      <trkpt lat="45.23427" lon="5.90724">
        <ele>722.75</ele>
        <time>2020-10-13T12:22:24.000Z</time>
      </trkpt>
      <trkpt lat="45.23454" lon="5.90643">
        <ele>713.27</ele>
        <time>2020-10-13T12:22:29.000Z</time>
      </trkpt>
      <trkpt lat="45.2347" lon="5.90571">
        <ele>705.38</ele>
        <time>2020-10-13T12:22:34.000Z</time>
      </trkpt>
      <trkpt lat="45.23481" lon="5.9051">
        <ele>703.07</ele>
        <time>2020-10-13T12:22:39.000Z</time>
      </trkpt>
      <trkpt lat="45.23488" lon="5.90459">
        <ele>702.18</ele>
        <time>2020-10-13T12:22:44.000Z</time>
      </trkpt>
      <trkpt lat="45.23494" lon="5.90411">
        <ele>705.5</ele>
        <time>2020-10-13T12:22:49.000Z</time>
      </trkpt>
      <trkpt lat="45.23502" lon="5.90365">
        <ele>705.3</ele>
        <time>2020-10-13T12:22:54.000Z</time>
      </trkpt>
      <trkpt lat="45.23497" lon="5.90319">
        <ele>702.83</ele>
        <time>2020-10-13T12:22:59.000Z</time>
      </trkpt>
      <trkpt lat="45.23474" lon="5.90274">
        <ele>701.36</ele>
        <time>2020-10-13T12:23:04.000Z</time>
      </trkpt>
      <trkpt lat="45.23439" lon="5.90251">
        <ele>701.32</ele>
        <time>2020-10-13T12:23:09.000Z</time>
      </trkpt>
      <trkpt lat="45.23391" lon="5.9027">
        <ele>696.78</ele>
        <time>2020-10-13T12:23:14.000Z</time>
      </trkpt>
      <trkpt lat="45.2334" lon="5.90297">
        <ele>693.13</ele>
        <time>2020-10-13T12:23:19.000Z</time>
      </trkpt>
      <trkpt lat="45.23285" lon="5.90329">
        <ele>690.69</ele>
        <time>2020-10-13T12:23:24.000Z</time>
      </trkpt>
      <trkpt lat="45.23224" lon="5.90334">
        <ele>691.52</ele>
        <time>2020-10-13T12:23:29.000Z</time>
      </trkpt>
      <trkpt lat="45.23169" lon="5.90328">
        <ele>688.57</ele>
        <time>2020-10-13T12:23:34.000Z</time>
      </trkpt>
      <trkpt lat="45.23118" lon="5.9032">
        <ele>687.54</ele>
        <time>2020-10-13T12:23:39.000Z</time>
      </trkpt>
      <trkpt lat="45.2307" lon="5.90323">
        <ele>687.78</ele>
        <time>2020-10-13T12:23:44.000Z</time>
      </trkpt>
      <trkpt lat="45.23022" lon="5.90333">
        <ele>686.6</ele>
        <time>2020-10-13T12:23:49.000Z</time>
      </trkpt>
      <trkpt lat="45.22978" lon="5.90352">
        <ele>685.06</ele>
        <time>2020-10-13T12:23:54.000Z</time>
      </trkpt>
      <trkpt lat="45.22936" lon="5.90346">
        <ele>685.38</ele>
        <time>2020-10-13T12:23:59.000Z</time>
      </trkpt>
      <trkpt lat="45.22926" lon="5.90316">
        <ele>682.64</ele>
        <time>2020-10-13T12:24:04.000Z</time>
      </trkpt>
      <trkpt lat="45.22913" lon="5.90294">
        <ele>681.19</ele>
        <time>2020-10-13T12:24:09.000Z</time>
      </trkpt>
      <trkpt lat="45.22876" lon="5.90281">
        <ele>677.59</ele>
        <time>2020-10-13T12:24:14.000Z</time>
      </trkpt>
      <trkpt lat="45.22857" lon="5.90255">
        <ele>683.67</ele>
        <time>2020-10-13T12:24:19.000Z</time>
      </trkpt>
      <trkpt lat="45.22826" lon="5.90242">
        <ele>685.54</ele>
        <time>2020-10-13T12:24:24.000Z</time>
      </trkpt>
      <trkpt lat="45.22796" lon="5.90244">
        <ele>688.46</ele>
        <time>2020-10-13T12:24:29.000Z</time>
      </trkpt>
      <trkpt lat="45.22762" lon="5.90244">
        <ele>689.58</ele>
        <time>2020-10-13T12:24:34.000Z</time>
      </trkpt>
      <trkpt lat="45.22728" lon="5.90243">
        <ele>690.22</ele>
        <time>2020-10-13T12:24:39.000Z</time>
      </trkpt>
      <trkpt lat="45.22691" lon="5.90248">
        <ele>689.29</ele>
        <time>2020-10-13T12:24:44.000Z</time>
      </trkpt>
      <trkpt lat="45.2265" lon="5.90265">
        <ele>691.59</ele>
        <time>2020-10-13T12:24:49.000Z</time>
      </trkpt>
      <trkpt lat="45.22622" lon="5.90295">
        <ele>692.6</ele>
        <time>2020-10-13T12:24:54.000Z</time>
      </trkpt>
      <trkpt lat="45.22609" lon="5.90335">
        <ele>693.73</ele>
        <time>2020-10-13T12:24:59.000Z</time>
      </trkpt>
      <trkpt lat="45.22596" lon="5.90374">
        <ele>697.7</ele>
        <time>2020-10-13T12:25:04.000Z</time>
      </trkpt>
      <trkpt lat="45.22586" lon="5.90417">
        <ele>698.08</ele>
        <time>2020-10-13T12:25:09.000Z</time>
      </trkpt>
      <trkpt lat="45.2258" lon="5.90464">
        <ele>699.04</ele>
        <time>2020-10-13T12:25:14.000Z</time>
      </trkpt>
      <trkpt lat="45.22571" lon="5.90512">
        <ele>701</ele>
        <time>2020-10-13T12:25:19.000Z</time>
      </trkpt>
      <trkpt lat="45.22547" lon="5.90519">
        <ele>700.12</ele>
        <time>2020-10-13T12:25:24.000Z</time>
      </trkpt>
      <trkpt lat="45.22533" lon="5.90476">
        <ele>698.51</ele>
        <time>2020-10-13T12:25:29.000Z</time>
      </trkpt>
      <trkpt lat="45.22518" lon="5.90445">
        <ele>701.66</ele>
        <time>2020-10-13T12:25:34.000Z</time>
      </trkpt>
      <trkpt lat="45.22509" lon="5.90414">
        <ele>706.31</ele>
        <time>2020-10-13T12:25:39.000Z</time>
      </trkpt>
      <trkpt lat="45.22481" lon="5.90398">
        <ele>702.72</ele>
        <time>2020-10-13T12:25:44.000Z</time>
      </trkpt>
      <trkpt lat="45.22459" lon="5.90381">
        <ele>701.36</ele>
        <time>2020-10-13T12:25:49.000Z</time>
      </trkpt>
      <trkpt lat="45.2244" lon="5.90354">
        <ele>701.58</ele>
        <time>2020-10-13T12:25:54.000Z</time>
      </trkpt>
      <trkpt lat="45.22421" lon="5.90328">
        <ele>702.55</ele>
        <time>2020-10-13T12:25:59.000Z</time>
      </trkpt>
      <trkpt lat="45.22406" lon="5.90292">
        <ele>706</ele>
        <time>2020-10-13T12:26:04.000Z</time>
      </trkpt>
      <trkpt lat="45.2239" lon="5.90261">
        <ele>705.32</ele>
        <time>2020-10-13T12:26:09.000Z</time>
      </trkpt>
      <trkpt lat="45.22376" lon="5.90229">
        <ele>701.14</ele>
        <time>2020-10-13T12:26:14.000Z</time>
      </trkpt>
      <trkpt lat="45.22361" lon="5.90199">
        <ele>699.64</ele>
        <time>2020-10-13T12:26:19.000Z</time>
      </trkpt>
      <trkpt lat="45.22341" lon="5.90174">
        <ele>700.95</ele>
        <time>2020-10-13T12:26:24.000Z</time>
      </trkpt>
      <trkpt lat="45.22318" lon="5.90154">
        <ele>700.03</ele>
        <time>2020-10-13T12:26:29.000Z</time>
      </trkpt>
      <trkpt lat="45.22292" lon="5.90134">
        <ele>705.05</ele>
        <time>2020-10-13T12:26:34.000Z</time>
      </trkpt>
      <trkpt lat="45.22264" lon="5.90116">
        <ele>710.68</ele>
        <time>2020-10-13T12:26:39.000Z</time>
      </trkpt>
      <trkpt lat="45.22233" lon="5.90114">
        <ele>711.45</ele>
        <time>2020-10-13T12:26:44.000Z</time>
      </trkpt>
      <trkpt lat="45.22209" lon="5.9014">
        <ele>712.18</ele>
        <time>2020-10-13T12:26:49.000Z</time>
      </trkpt>
      <trkpt lat="45.22182" lon="5.90174">
        <ele>712.42</ele>
        <time>2020-10-13T12:26:54.000Z</time>
      </trkpt>
      <trkpt lat="45.22149" lon="5.90201">
        <ele>711.42</ele>
        <time>2020-10-13T12:26:59.000Z</time>
      </trkpt>
      <trkpt lat="45.22119" lon="5.90228">
        <ele>710.45</ele>
        <time>2020-10-13T12:27:04.000Z</time>
      </trkpt>
      <trkpt lat="45.22086" lon="5.9025">
        <ele>715.64</ele>
        <time>2020-10-13T12:27:09.000Z</time>
      </trkpt>
      <trkpt lat="45.2205" lon="5.90255">
        <ele>713.75</ele>
        <time>2020-10-13T12:27:14.000Z</time>
      </trkpt>
      <trkpt lat="45.22018" lon="5.90243">
        <ele>711.15</ele>
        <time>2020-10-13T12:27:19.000Z</time>
      </trkpt>
      <trkpt lat="45.21991" lon="5.90225">
        <ele>711.24</ele>
        <time>2020-10-13T12:27:24.000Z</time>
      </trkpt>
      <trkpt lat="45.21975" lon="5.90205">
        <ele>713.43</ele>
        <time>2020-10-13T12:27:29.000Z</time>
      </trkpt>
      <trkpt lat="45.21953" lon="5.90179">
        <ele>716.47</ele>
        <time>2020-10-13T12:27:34.000Z</time>
      </trkpt>
      <trkpt lat="45.21934" lon="5.90151">
        <ele>716.01</ele>
        <time>2020-10-13T12:27:39.000Z</time>
      </trkpt>
      <trkpt lat="45.21931" lon="5.90108">
        <ele>717.62</ele>
        <time>2020-10-13T12:27:44.000Z</time>
      </trkpt>
      <trkpt lat="45.2194" lon="5.90068">
        <ele>721.99</ele>
        <time>2020-10-13T12:27:49.000Z</time>
      </trkpt>
      <trkpt lat="45.21924" lon="5.9004">
        <ele>725.13</ele>
        <time>2020-10-13T12:27:54.000Z</time>
      </trkpt>
      <trkpt lat="45.21901" lon="5.9002">
        <ele>725.11</ele>
        <time>2020-10-13T12:27:59.000Z</time>
      </trkpt>
      <trkpt lat="45.21877" lon="5.89999">
        <ele>728.73</ele>
        <time>2020-10-13T12:28:04.000Z</time>
      </trkpt>
      <trkpt lat="45.21849" lon="5.89987">
        <ele>725.37</ele>
        <time>2020-10-13T12:28:09.000Z</time>
      </trkpt>
      <trkpt lat="45.21822" lon="5.89975">
        <ele>726.05</ele>
        <time>2020-10-13T12:28:14.000Z</time>
      </trkpt>
      <trkpt lat="45.21793" lon="5.89964">
        <ele>728.41</ele>
        <time>2020-10-13T12:28:19.000Z</time>
      </trkpt>
      <trkpt lat="45.21771" lon="5.89951">
        <ele>729.92</ele>
        <time>2020-10-13T12:28:24.000Z</time>
      </trkpt>
      <trkpt lat="45.21747" lon="5.89931">
        <ele>728.79</ele>
        <time>2020-10-13T12:28:29.000Z</time>
      </trkpt>
      <trkpt lat="45.21721" lon="5.89916">
        <ele>725.75</ele>
        <time>2020-10-13T12:28:34.000Z</time>
      </trkpt>
      <trkpt lat="45.21691" lon="5.899">
        <ele>724.74</ele>
        <time>2020-10-13T12:28:39.000Z</time>
      </trkpt>
      <trkpt lat="45.21671" lon="5.89877">
        <ele>727.15</ele>
        <time>2020-10-13T12:28:44.000Z</time>
      </trkpt>
      <trkpt lat="45.21645" lon="5.89848">
        <ele>729.66</ele>
        <time>2020-10-13T12:28:49.000Z</time>
      </trkpt>
      <trkpt lat="45.21619" lon="5.89832">
        <ele>729.34</ele>
        <time>2020-10-13T12:28:54.000Z</time>
      </trkpt>
      <trkpt lat="45.21592" lon="5.89813">
        <ele>729.15</ele>
        <time>2020-10-13T12:28:59.000Z</time>
      </trkpt>
      <trkpt lat="45.21567" lon="5.89794">
        <ele>733.27</ele>
        <time>2020-10-13T12:29:04.000Z</time>
      </trkpt>
      <trkpt lat="45.21541" lon="5.89774">
        <ele>735.12</ele>
        <time>2020-10-13T12:29:09.000Z</time>
      </trkpt>
      <trkpt lat="45.21513" lon="5.89757">
        <ele>734.78</ele>
        <time>2020-10-13T12:29:14.000Z</time>
      </trkpt>
      <trkpt lat="45.21488" lon="5.89743">
        <ele>735.44</ele>
        <time>2020-10-13T12:29:19.000Z</time>
      </trkpt>
      <trkpt lat="45.21461" lon="5.89728">
        <ele>735.64</ele>
        <time>2020-10-13T12:29:24.000Z</time>
      </trkpt>
      <trkpt lat="45.21432" lon="5.89725">
        <ele>736.59</ele>
        <time>2020-10-13T12:29:29.000Z</time>
      </trkpt>
      <trkpt lat="45.21404" lon="5.8973">
        <ele>738.85</ele>
        <time>2020-10-13T12:29:34.000Z</time>
      </trkpt>
      <trkpt lat="45.21378" lon="5.89742">
        <ele>738.77</ele>
        <time>2020-10-13T12:29:39.000Z</time>
      </trkpt>
      <trkpt lat="45.21352" lon="5.89755">
        <ele>739.65</ele>
        <time>2020-10-13T12:29:44.000Z</time>
      </trkpt>
      <trkpt lat="45.21329" lon="5.8977">
        <ele>738.44</ele>
        <time>2020-10-13T12:29:49.000Z</time>
      </trkpt>
      <trkpt lat="45.21303" lon="5.89784">
        <ele>743.14</ele>
        <time>2020-10-13T12:29:54.000Z</time>
      </trkpt>
      <trkpt lat="45.21276" lon="5.89789">
        <ele>743.03</ele>
        <time>2020-10-13T12:29:59.000Z</time>
      </trkpt>
      <trkpt lat="45.2125" lon="5.8979">
        <ele>744.11</ele>
        <time>2020-10-13T12:30:04.000Z</time>
      </trkpt>
      <trkpt lat="45.21223" lon="5.89791">
        <ele>744.77</ele>
        <time>2020-10-13T12:30:09.000Z</time>
      </trkpt>
      <trkpt lat="45.21195" lon="5.89776">
        <ele>748.43</ele>
        <time>2020-10-13T12:30:14.000Z</time>
      </trkpt>
      <trkpt lat="45.21167" lon="5.89764">
        <ele>748.89</ele>
        <time>2020-10-13T12:30:19.000Z</time>
      </trkpt>
      <trkpt lat="45.21142" lon="5.89765">
        <ele>751.03</ele>
        <time>2020-10-13T12:30:24.000Z</time>
      </trkpt>
      <trkpt lat="45.21122" lon="5.89778">
        <ele>751.49</ele>
        <time>2020-10-13T12:30:29.000Z</time>
      </trkpt>
      <trkpt lat="45.21097" lon="5.89783">
        <ele>753.96</ele>
        <time>2020-10-13T12:30:34.000Z</time>
      </trkpt>
      <trkpt lat="45.2107" lon="5.89771">
        <ele>751.69</ele>
        <time>2020-10-13T12:30:39.000Z</time>
      </trkpt>
      <trkpt lat="45.21037" lon="5.8977">
        <ele>751.2</ele>
        <time>2020-10-13T12:30:44.000Z</time>
      </trkpt>
      <trkpt lat="45.20999" lon="5.89783">
        <ele>747.18</ele>
        <time>2020-10-13T12:30:49.000Z</time>
      </trkpt>
      <trkpt lat="45.20969" lon="5.89766">
        <ele>746.81</ele>
        <time>2020-10-13T12:30:54.000Z</time>
      </trkpt>
      <trkpt lat="45.20971" lon="5.89732">
        <ele>748.11</ele>
        <time>2020-10-13T12:30:59.000Z</time>
      </trkpt>
      <trkpt lat="45.20992" lon="5.89699">
        <ele>748.32</ele>
        <time>2020-10-13T12:31:04.000Z</time>
      </trkpt>
      <trkpt lat="45.21014" lon="5.89661">
        <ele>750.71</ele>
        <time>2020-10-13T12:31:09.000Z</time>
      </trkpt>
      <trkpt lat="45.21026" lon="5.89615">
        <ele>749.13</ele>
        <time>2020-10-13T12:31:14.000Z</time>
      </trkpt>
      <trkpt lat="45.21026" lon="5.8957">
        <ele>750.62</ele>
        <time>2020-10-13T12:31:19.000Z</time>
      </trkpt>
      <trkpt lat="45.2103" lon="5.89525">
        <ele>751.92</ele>
        <time>2020-10-13T12:31:24.000Z</time>
      </trkpt>
      <trkpt lat="45.21034" lon="5.8948">
        <ele>755.48</ele>
        <time>2020-10-13T12:31:29.000Z</time>
      </trkpt>
      <trkpt lat="45.2105" lon="5.89441">
        <ele>757.95</ele>
        <time>2020-10-13T12:31:34.000Z</time>
      </trkpt>
      <trkpt lat="45.2107" lon="5.89406">
        <ele>756.65</ele>
        <time>2020-10-13T12:31:39.000Z</time>
      </trkpt>
      <trkpt lat="45.21092" lon="5.89372">
        <ele>756.46</ele>
        <time>2020-10-13T12:31:44.000Z</time>
      </trkpt>
      <trkpt lat="45.21111" lon="5.89335">
        <ele>755.82</ele>
        <time>2020-10-13T12:31:49.000Z</time>
      </trkpt>
      <trkpt lat="45.21133" lon="5.89302">
        <ele>752.35</ele>
        <time>2020-10-13T12:31:54.000Z</time>
      </trkpt>
      <trkpt lat="45.21156" lon="5.89291">
        <ele>747.63</ele>
        <time>2020-10-13T12:31:59.000Z</time>
      </trkpt>
      <trkpt lat="45.21183" lon="5.89279">
        <ele>751.41</ele>
        <time>2020-10-13T12:32:04.000Z</time>
      </trkpt>
      <trkpt lat="45.21195" lon="5.89247">
        <ele>755.49</ele>
        <time>2020-10-13T12:32:09.000Z</time>
      </trkpt>
      <trkpt lat="45.2121" lon="5.89216">
        <ele>759.47</ele>
        <time>2020-10-13T12:32:14.000Z</time>
      </trkpt>
      <trkpt lat="45.21229" lon="5.89194">
        <ele>762.19</ele>
        <time>2020-10-13T12:32:19.000Z</time>
      </trkpt>
      <trkpt lat="45.2125" lon="5.89179">
        <ele>764.04</ele>
        <time>2020-10-13T12:32:24.000Z</time>
      </trkpt>
      <trkpt lat="45.21268" lon="5.89169">
        <ele>763.62</ele>
        <time>2020-10-13T12:32:29.000Z</time>
      </trkpt>
      <trkpt lat="45.21292" lon="5.89154">
        <ele>763.44</ele>
        <time>2020-10-13T12:32:34.000Z</time>
      </trkpt>
      <trkpt lat="45.21315" lon="5.89145">
        <ele>766.43</ele>
        <time>2020-10-13T12:32:39.000Z</time>
      </trkpt>
      <trkpt lat="45.21342" lon="5.89125">
        <ele>765.84</ele>
        <time>2020-10-13T12:32:44.000Z</time>
      </trkpt>
      <trkpt lat="45.21368" lon="5.8911">
        <ele>762.75</ele>
        <time>2020-10-13T12:32:49.000Z</time>
      </trkpt>
      <trkpt lat="45.21392" lon="5.89094">
        <ele>764.8</ele>
        <time>2020-10-13T12:32:54.000Z</time>
      </trkpt>
      <trkpt lat="45.21416" lon="5.8908">
        <ele>765.44</ele>
        <time>2020-10-13T12:32:59.000Z</time>
      </trkpt>
      <trkpt lat="45.21438" lon="5.89066">
        <ele>766.74</ele>
        <time>2020-10-13T12:33:04.000Z</time>
      </trkpt>
      <trkpt lat="45.21464" lon="5.89053">
        <ele>762.99</ele>
        <time>2020-10-13T12:33:09.000Z</time>
      </trkpt>
      <trkpt lat="45.21493" lon="5.89044">
        <ele>765.88</ele>
        <time>2020-10-13T12:33:14.000Z</time>
      </trkpt>
      <trkpt lat="45.21521" lon="5.89032">
        <ele>770.59</ele>
        <time>2020-10-13T12:33:19.000Z</time>
      </trkpt>
      <trkpt lat="45.21542" lon="5.89018">
        <ele>771.59</ele>
        <time>2020-10-13T12:33:24.000Z</time>
      </trkpt>
      <trkpt lat="45.21559" lon="5.89009">
        <ele>775.34</ele>
        <time>2020-10-13T12:33:29.000Z</time>
      </trkpt>
      <trkpt lat="45.21582" lon="5.88988">
        <ele>775.48</ele>
        <time>2020-10-13T12:33:34.000Z</time>
      </trkpt>
      <trkpt lat="45.21612" lon="5.88972">
        <ele>781.18</ele>
        <time>2020-10-13T12:33:39.000Z</time>
      </trkpt>
      <trkpt lat="45.21641" lon="5.88955">
        <ele>786.5</ele>
        <time>2020-10-13T12:33:44.000Z</time>
      </trkpt>
      <trkpt lat="45.21666" lon="5.8894">
        <ele>789.98</ele>
        <time>2020-10-13T12:33:49.000Z</time>
      </trkpt>
      <trkpt lat="45.21693" lon="5.88921">
        <ele>795.58</ele>
        <time>2020-10-13T12:33:54.000Z</time>
      </trkpt>
      <trkpt lat="45.21704" lon="5.88886">
        <ele>798.67</ele>
        <time>2020-10-13T12:33:59.000Z</time>
      </trkpt>
      <trkpt lat="45.21696" lon="5.88863">
        <ele>796.52</ele>
        <time>2020-10-13T12:34:04.000Z</time>
      </trkpt>
      <trkpt lat="45.21665" lon="5.88846">
        <ele>798.06</ele>
        <time>2020-10-13T12:34:09.000Z</time>
      </trkpt>
      <trkpt lat="45.21629" lon="5.88825">
        <ele>797.02</ele>
        <time>2020-10-13T12:34:14.000Z</time>
      </trkpt>
      <trkpt lat="45.21587" lon="5.88786">
        <ele>792.74</ele>
        <time>2020-10-13T12:34:19.000Z</time>
      </trkpt>
      <trkpt lat="45.21547" lon="5.88747">
        <ele>786.96</ele>
        <time>2020-10-13T12:34:24.000Z</time>
      </trkpt>
      <trkpt lat="45.21507" lon="5.88687">
        <ele>775.66</ele>
        <time>2020-10-13T12:34:29.000Z</time>
      </trkpt>
      <trkpt lat="45.21474" lon="5.88605">
        <ele>774.4</ele>
        <time>2020-10-13T12:34:34.000Z</time>
      </trkpt>
      <trkpt lat="45.21434" lon="5.88516">
        <ele>768.01</ele>
        <time>2020-10-13T12:34:39.000Z</time>
      </trkpt>
      <trkpt lat="45.21427" lon="5.88412">
        <ele>767.81</ele>
        <time>2020-10-13T12:34:44.000Z</time>
      </trkpt>
      <trkpt lat="45.21416" lon="5.88316">
        <ele>760.36</ele>
        <time>2020-10-13T12:34:49.000Z</time>
      </trkpt>
      <trkpt lat="45.21354" lon="5.88326">
        <ele>757.99</ele>
        <time>2020-10-13T12:34:54.000Z</time>
      </trkpt>
      <trkpt lat="45.21295" lon="5.88353">
        <ele>755.76</ele>
        <time>2020-10-13T12:34:59.000Z</time>
      </trkpt>
      <trkpt lat="45.21238" lon="5.88357">
        <ele>756.2</ele>
        <time>2020-10-13T12:35:04.000Z</time>
      </trkpt>
      <trkpt lat="45.2119" lon="5.88358">
        <ele>755.61</ele>
        <time>2020-10-13T12:35:09.000Z</time>
      </trkpt>
      <trkpt lat="45.21148" lon="5.88348">
        <ele>750.48</ele>
        <time>2020-10-13T12:35:14.000Z</time>
      </trkpt>
      <trkpt lat="45.21107" lon="5.88336">
        <ele>748.85</ele>
        <time>2020-10-13T12:35:19.000Z</time>
      </trkpt>
      <trkpt lat="45.2107" lon="5.88313">
        <ele>746.19</ele>
        <time>2020-10-13T12:35:24.000Z</time>
      </trkpt>
      <trkpt lat="45.21034" lon="5.88291">
        <ele>746.69</ele>
        <time>2020-10-13T12:35:29.000Z</time>
      </trkpt>
      <trkpt lat="45.20995" lon="5.88285">
        <ele>744.95</ele>
        <time>2020-10-13T12:35:34.000Z</time>
      </trkpt>
      <trkpt lat="45.20955" lon="5.88278">
        <ele>744.01</ele>
        <time>2020-10-13T12:35:39.000Z</time>
      </trkpt>
      <trkpt lat="45.20916" lon="5.88268">
        <ele>743.43</ele>
        <time>2020-10-13T12:35:44.000Z</time>
      </trkpt>
      <trkpt lat="45.20878" lon="5.88268">
        <ele>743.14</ele>
        <time>2020-10-13T12:35:49.000Z</time>
      </trkpt>
      <trkpt lat="45.20846" lon="5.88293">
        <ele>742.87</ele>
        <time>2020-10-13T12:35:54.000Z</time>
      </trkpt>
      <trkpt lat="45.20804" lon="5.88323">
        <ele>740.31</ele>
        <time>2020-10-13T12:35:59.000Z</time>
      </trkpt>
      <trkpt lat="45.20758" lon="5.8834">
        <ele>738.89</ele>
        <time>2020-10-13T12:36:04.000Z</time>
      </trkpt>
      <trkpt lat="45.207" lon="5.88344">
        <ele>735.24</ele>
        <time>2020-10-13T12:36:09.000Z</time>
      </trkpt>
      <trkpt lat="45.20651" lon="5.88283">
        <ele>732.04</ele>
        <time>2020-10-13T12:36:14.000Z</time>
      </trkpt>
      <trkpt lat="45.2062" lon="5.88236">
        <ele>726.22</ele>
        <time>2020-10-13T12:36:19.000Z</time>
      </trkpt>
      <trkpt lat="45.20598" lon="5.88182">
        <ele>724.54</ele>
        <time>2020-10-13T12:36:24.000Z</time>
      </trkpt>
      <trkpt lat="45.20573" lon="5.88142">
        <ele>724.3</ele>
        <time>2020-10-13T12:36:29.000Z</time>
      </trkpt>
      <trkpt lat="45.20539" lon="5.88126">
        <ele>723.89</ele>
        <time>2020-10-13T12:36:34.000Z</time>
      </trkpt>
      <trkpt lat="45.2051" lon="5.8814">
        <ele>722.71</ele>
        <time>2020-10-13T12:36:39.000Z</time>
      </trkpt>
      <trkpt lat="45.20476" lon="5.88146">
        <ele>720.42</ele>
        <time>2020-10-13T12:36:44.000Z</time>
      </trkpt>
      <trkpt lat="45.20445" lon="5.88143">
        <ele>718.69</ele>
        <time>2020-10-13T12:36:49.000Z</time>
      </trkpt>
      <trkpt lat="45.20416" lon="5.88138">
        <ele>717.43</ele>
        <time>2020-10-13T12:36:54.000Z</time>
      </trkpt>
      <trkpt lat="45.20383" lon="5.88138">
        <ele>718.18</ele>
        <time>2020-10-13T12:36:59.000Z</time>
      </trkpt>
      <trkpt lat="45.20351" lon="5.88155">
        <ele>715.86</ele>
        <time>2020-10-13T12:37:04.000Z</time>
      </trkpt>
      <trkpt lat="45.20326" lon="5.88175">
        <ele>716.99</ele>
        <time>2020-10-13T12:37:09.000Z</time>
      </trkpt>
      <trkpt lat="45.20301" lon="5.88202">
        <ele>718.87</ele>
        <time>2020-10-13T12:37:14.000Z</time>
      </trkpt>
      <trkpt lat="45.20275" lon="5.88217">
        <ele>721.31</ele>
        <time>2020-10-13T12:37:19.000Z</time>
      </trkpt>
      <trkpt lat="45.20255" lon="5.8822">
        <ele>723.25</ele>
        <time>2020-10-13T12:37:24.000Z</time>
      </trkpt>
      <trkpt lat="45.20241" lon="5.88217">
        <ele>726.36</ele>
        <time>2020-10-13T12:37:29.000Z</time>
      </trkpt>
      <trkpt lat="45.20222" lon="5.88211">
        <ele>726.62</ele>
        <time>2020-10-13T12:37:34.000Z</time>
      </trkpt>
      <trkpt lat="45.20201" lon="5.882">
        <ele>724.83</ele>
        <time>2020-10-13T12:37:39.000Z</time>
      </trkpt>
      <trkpt lat="45.20191" lon="5.88178">
        <ele>724.99</ele>
        <time>2020-10-13T12:37:44.000Z</time>
      </trkpt>
      <trkpt lat="45.20177" lon="5.88155">
        <ele>726.16</ele>
        <time>2020-10-13T12:37:49.000Z</time>
      </trkpt>
      <trkpt lat="45.20166" lon="5.88135">
        <ele>731.28</ele>
        <time>2020-10-13T12:37:54.000Z</time>
      </trkpt>
      <trkpt lat="45.2016" lon="5.88107">
        <ele>731.13</ele>
        <time>2020-10-13T12:37:59.000Z</time>
      </trkpt>
      <trkpt lat="45.20159" lon="5.88081">
        <ele>728.51</ele>
        <time>2020-10-13T12:38:04.000Z</time>
      </trkpt>
      <trkpt lat="45.20156" lon="5.88058">
        <ele>722.64</ele>
        <time>2020-10-13T12:38:09.000Z</time>
      </trkpt>
      <trkpt lat="45.20152" lon="5.88035">
        <ele>723.11</ele>
        <time>2020-10-13T12:38:14.000Z</time>
      </trkpt>
      <trkpt lat="45.20146" lon="5.88009">
        <ele>722.33</ele>
        <time>2020-10-13T12:38:19.000Z</time>
      </trkpt>
      <trkpt lat="45.20136" lon="5.87983">
        <ele>728.19</ele>
        <time>2020-10-13T12:38:24.000Z</time>
      </trkpt>
      <trkpt lat="45.20136" lon="5.87938">
        <ele>733.34</ele>
        <time>2020-10-13T12:38:29.000Z</time>
      </trkpt>
      <trkpt lat="45.20129" lon="5.87905">
        <ele>738.27</ele>
        <time>2020-10-13T12:38:34.000Z</time>
      </trkpt>
      <trkpt lat="45.20127" lon="5.87871">
        <ele>741.35</ele>
        <time>2020-10-13T12:38:39.000Z</time>
      </trkpt>
      <trkpt lat="45.20121" lon="5.87845">
        <ele>738.16</ele>
        <time>2020-10-13T12:38:44.000Z</time>
      </trkpt>
      <trkpt lat="45.2012" lon="5.87819">
        <ele>739.06</ele>
        <time>2020-10-13T12:38:49.000Z</time>
      </trkpt>
      <trkpt lat="45.20126" lon="5.87793">
        <ele>745.12</ele>
        <time>2020-10-13T12:38:54.000Z</time>
      </trkpt>
      <trkpt lat="45.20131" lon="5.87763">
        <ele>744.03</ele>
        <time>2020-10-13T12:38:59.000Z</time>
      </trkpt>
      <trkpt lat="45.20128" lon="5.87718">
        <ele>738.82</ele>
        <time>2020-10-13T12:39:04.000Z</time>
      </trkpt>
      <trkpt lat="45.20132" lon="5.87691">
        <ele>738.69</ele>
        <time>2020-10-13T12:39:09.000Z</time>
      </trkpt>
      <trkpt lat="45.20127" lon="5.87665">
        <ele>738.55</ele>
        <time>2020-10-13T12:39:14.000Z</time>
      </trkpt>
      <trkpt lat="45.20124" lon="5.87617">
        <ele>742.59</ele>
        <time>2020-10-13T12:39:19.000Z</time>
      </trkpt>
      <trkpt lat="45.20114" lon="5.87571">
        <ele>747.73</ele>
        <time>2020-10-13T12:39:24.000Z</time>
      </trkpt>
      <trkpt lat="45.20109" lon="5.87531">
        <ele>753.61</ele>
        <time>2020-10-13T12:39:29.000Z</time>
      </trkpt>
      <trkpt lat="45.20113" lon="5.87505">
        <ele>760.1</ele>
        <time>2020-10-13T12:39:34.000Z</time>
      </trkpt>
      <trkpt lat="45.20116" lon="5.87474">
        <ele>765.74</ele>
        <time>2020-10-13T12:39:39.000Z</time>
      </trkpt>
      <trkpt lat="45.20127" lon="5.87447">
        <ele>765.95</ele>
        <time>2020-10-13T12:39:44.000Z</time>
      </trkpt>
      <trkpt lat="45.20139" lon="5.87424">
        <ele>769.67</ele>
        <time>2020-10-13T12:39:49.000Z</time>
      </trkpt>
      <trkpt lat="45.20148" lon="5.87399">
        <ele>773.55</ele>
        <time>2020-10-13T12:39:54.000Z</time>
      </trkpt>
      <trkpt lat="45.20147" lon="5.87366">
        <ele>779.32</ele>
        <time>2020-10-13T12:39:59.000Z</time>
      </trkpt>
      <trkpt lat="45.20143" lon="5.87333">
        <ele>784.01</ele>
        <time>2020-10-13T12:40:04.000Z</time>
      </trkpt>
      <trkpt lat="45.20134" lon="5.87298">
        <ele>785.75</ele>
        <time>2020-10-13T12:40:09.000Z</time>
      </trkpt>
      <trkpt lat="45.20122" lon="5.87269">
        <ele>784.95</ele>
        <time>2020-10-13T12:40:14.000Z</time>
      </trkpt>
      <trkpt lat="45.20116" lon="5.87245">
        <ele>791.16</ele>
        <time>2020-10-13T12:40:19.000Z</time>
      </trkpt>
      <trkpt lat="45.20103" lon="5.87208">
        <ele>793.69</ele>
        <time>2020-10-13T12:40:24.000Z</time>
      </trkpt>
      <trkpt lat="45.20088" lon="5.87182">
        <ele>796.44</ele>
        <time>2020-10-13T12:40:29.000Z</time>
      </trkpt>
      <trkpt lat="45.20072" lon="5.87163">
        <ele>795.06</ele>
        <time>2020-10-13T12:40:34.000Z</time>
      </trkpt>
      <trkpt lat="45.20065" lon="5.87132">
        <ele>797.43</ele>
        <time>2020-10-13T12:40:39.000Z</time>
      </trkpt>
      <trkpt lat="45.2006" lon="5.8711">
        <ele>792.88</ele>
        <time>2020-10-13T12:40:44.000Z</time>
      </trkpt>
      <trkpt lat="45.20058" lon="5.87085">
        <ele>791.52</ele>
        <time>2020-10-13T12:40:49.000Z</time>
      </trkpt>
      <trkpt lat="45.20061" lon="5.87062">
        <ele>796.66</ele>
        <time>2020-10-13T12:40:54.000Z</time>
      </trkpt>
      <trkpt lat="45.20065" lon="5.87032">
        <ele>792.43</ele>
        <time>2020-10-13T12:40:59.000Z</time>
      </trkpt>
      <trkpt lat="45.2007" lon="5.87008">
        <ele>790.96</ele>
        <time>2020-10-13T12:41:04.000Z</time>
      </trkpt>
      <trkpt lat="45.20077" lon="5.86975">
        <ele>790.72</ele>
        <time>2020-10-13T12:41:09.000Z</time>
      </trkpt>
      <trkpt lat="45.20088" lon="5.86937">
        <ele>788.87</ele>
        <time>2020-10-13T12:41:14.000Z</time>
      </trkpt>
      <trkpt lat="45.20089" lon="5.86899">
        <ele>798.46</ele>
        <time>2020-10-13T12:41:19.000Z</time>
      </trkpt>
      <trkpt lat="45.20066" lon="5.86852">
        <ele>803.9</ele>
        <time>2020-10-13T12:41:24.000Z</time>
      </trkpt>
      <trkpt lat="45.20049" lon="5.86825">
        <ele>805.25</ele>
        <time>2020-10-13T12:41:29.000Z</time>
      </trkpt>
      <trkpt lat="45.20033" lon="5.86795">
        <ele>806.82</ele>
        <time>2020-10-13T12:41:34.000Z</time>
      </trkpt>
      <trkpt lat="45.20026" lon="5.86766">
        <ele>813.05</ele>
        <time>2020-10-13T12:41:39.000Z</time>
      </trkpt>
      <trkpt lat="45.20011" lon="5.86737">
        <ele>812.71</ele>
        <time>2020-10-13T12:41:44.000Z</time>
      </trkpt>
      <trkpt lat="45.19994" lon="5.86725">
        <ele>808.39</ele>
        <time>2020-10-13T12:41:49.000Z</time>
      </trkpt>
      <trkpt lat="45.19976" lon="5.8672">
        <ele>808.27</ele>
        <time>2020-10-13T12:41:54.000Z</time>
      </trkpt>
      <trkpt lat="45.19957" lon="5.86722">
        <ele>812.57</ele>
        <time>2020-10-13T12:41:59.000Z</time>
      </trkpt>
      <trkpt lat="45.1994" lon="5.86726">
        <ele>809.56</ele>
        <time>2020-10-13T12:42:04.000Z</time>
      </trkpt>
      <trkpt lat="45.19917" lon="5.8673">
        <ele>807.62</ele>
        <time>2020-10-13T12:42:09.000Z</time>
      </trkpt>
      <trkpt lat="45.19893" lon="5.86731">
        <ele>806.53</ele>
        <time>2020-10-13T12:42:14.000Z</time>
      </trkpt>
      <trkpt lat="45.19866" lon="5.86727">
        <ele>809.75</ele>
        <time>2020-10-13T12:42:19.000Z</time>
      </trkpt>
      <trkpt lat="45.1984" lon="5.86725">
        <ele>815.33</ele>
        <time>2020-10-13T12:42:24.000Z</time>
      </trkpt>
      <trkpt lat="45.19816" lon="5.86723">
        <ele>820.28</ele>
        <time>2020-10-13T12:42:29.000Z</time>
      </trkpt>
      <trkpt lat="45.19795" lon="5.86716">
        <ele>825.17</ele>
        <time>2020-10-13T12:42:34.000Z</time>
      </trkpt>
      <trkpt lat="45.19771" lon="5.86716">
        <ele>827.82</ele>
        <time>2020-10-13T12:42:39.000Z</time>
      </trkpt>
      <trkpt lat="45.19749" lon="5.86719">
        <ele>831.38</ele>
        <time>2020-10-13T12:42:44.000Z</time>
      </trkpt>
      <trkpt lat="45.1973" lon="5.86735">
        <ele>834.54</ele>
        <time>2020-10-13T12:42:49.000Z</time>
      </trkpt>
      <trkpt lat="45.19725" lon="5.86767">
        <ele>834.36</ele>
        <time>2020-10-13T12:42:54.000Z</time>
      </trkpt>
      <trkpt lat="45.19727" lon="5.86802">
        <ele>836.8</ele>
        <time>2020-10-13T12:42:59.000Z</time>
      </trkpt>
      <trkpt lat="45.19718" lon="5.86833">
        <ele>839.83</ele>
        <time>2020-10-13T12:43:04.000Z</time>
      </trkpt>
      <trkpt lat="45.19701" lon="5.86847">
        <ele>842.75</ele>
        <time>2020-10-13T12:43:09.000Z</time>
      </trkpt>
      <trkpt lat="45.19679" lon="5.86854">
        <ele>846.06</ele>
        <time>2020-10-13T12:43:14.000Z</time>
      </trkpt>
      <trkpt lat="45.19657" lon="5.86854">
        <ele>845.95</ele>
        <time>2020-10-13T12:43:19.000Z</time>
      </trkpt>
      <trkpt lat="45.19631" lon="5.86857">
        <ele>845.92</ele>
        <time>2020-10-13T12:43:24.000Z</time>
      </trkpt>
      <trkpt lat="45.19609" lon="5.8686">
        <ele>844.47</ele>
        <time>2020-10-13T12:43:29.000Z</time>
      </trkpt>
      <trkpt lat="45.19585" lon="5.86864">
        <ele>849.43</ele>
        <time>2020-10-13T12:43:34.000Z</time>
      </trkpt>
      <trkpt lat="45.19563" lon="5.86872">
        <ele>847.56</ele>
        <time>2020-10-13T12:43:39.000Z</time>
      </trkpt>
      <trkpt lat="45.19545" lon="5.86887">
        <ele>852.63</ele>
        <time>2020-10-13T12:43:44.000Z</time>
      </trkpt>
      <trkpt lat="45.19539" lon="5.8692">
        <ele>855.85</ele>
        <time>2020-10-13T12:43:49.000Z</time>
      </trkpt>
      <trkpt lat="45.19537" lon="5.86951">
        <ele>860.94</ele>
        <time>2020-10-13T12:43:54.000Z</time>
      </trkpt>
      <trkpt lat="45.1954" lon="5.8699">
        <ele>868.75</ele>
        <time>2020-10-13T12:43:59.000Z</time>
      </trkpt>
      <trkpt lat="45.19547" lon="5.87021">
        <ele>873.55</ele>
        <time>2020-10-13T12:44:04.000Z</time>
      </trkpt>
      <trkpt lat="45.19556" lon="5.87042">
        <ele>871.23</ele>
        <time>2020-10-13T12:44:09.000Z</time>
      </trkpt>
      <trkpt lat="45.19573" lon="5.87069">
        <ele>867.45</ele>
        <time>2020-10-13T12:44:14.000Z</time>
      </trkpt>
      <trkpt lat="45.19593" lon="5.87094">
        <ele>864.63</ele>
        <time>2020-10-13T12:44:19.000Z</time>
      </trkpt>
      <trkpt lat="45.19613" lon="5.87121">
        <ele>865.66</ele>
        <time>2020-10-13T12:44:24.000Z</time>
      </trkpt>
      <trkpt lat="45.19632" lon="5.8715">
        <ele>866.15</ele>
        <time>2020-10-13T12:44:29.000Z</time>
      </trkpt>
      <trkpt lat="45.19656" lon="5.87183">
        <ele>866.78</ele>
        <time>2020-10-13T12:44:34.000Z</time>
      </trkpt>
      <trkpt lat="45.19676" lon="5.87227">
        <ele>865.34</ele>
        <time>2020-10-13T12:44:39.000Z</time>
      </trkpt>
      <trkpt lat="45.19683" lon="5.87277">
        <ele>868.59</ele>
        <time>2020-10-13T12:44:44.000Z</time>
      </trkpt>
      <trkpt lat="45.19684" lon="5.8732">
        <ele>870.76</ele>
        <time>2020-10-13T12:44:49.000Z</time>
      </trkpt>
      <trkpt lat="45.1969" lon="5.87374">
        <ele>869.96</ele>
        <time>2020-10-13T12:44:54.000Z</time>
      </trkpt>
      <trkpt lat="45.19692" lon="5.87416">
        <ele>872.14</ele>
        <time>2020-10-13T12:44:59.000Z</time>
      </trkpt>
      <trkpt lat="45.19697" lon="5.87458">
        <ele>874.33</ele>
        <time>2020-10-13T12:45:04.000Z</time>
      </trkpt>
      <trkpt lat="45.19679" lon="5.87492">
        <ele>875.82</ele>
        <time>2020-10-13T12:45:09.000Z</time>
      </trkpt>
      <trkpt lat="45.19664" lon="5.87525">
        <ele>877.4</ele>
        <time>2020-10-13T12:45:14.000Z</time>
      </trkpt>
      <trkpt lat="45.19642" lon="5.87557">
        <ele>871.79</ele>
        <time>2020-10-13T12:45:19.000Z</time>
      </trkpt>
      <trkpt lat="45.19619" lon="5.87578">
        <ele>873.33</ele>
        <time>2020-10-13T12:45:24.000Z</time>
      </trkpt>
      <trkpt lat="45.19602" lon="5.87598">
        <ele>874</ele>
        <time>2020-10-13T12:45:29.000Z</time>
      </trkpt>
      <trkpt lat="45.19586" lon="5.87619">
        <ele>877.61</ele>
        <time>2020-10-13T12:45:34.000Z</time>
      </trkpt>
      <trkpt lat="45.19566" lon="5.87645">
        <ele>878.34</ele>
        <time>2020-10-13T12:45:39.000Z</time>
      </trkpt>
      <trkpt lat="45.19545" lon="5.87658">
        <ele>879.62</ele>
        <time>2020-10-13T12:45:44.000Z</time>
      </trkpt>
      <trkpt lat="45.19521" lon="5.87668">
        <ele>879.25</ele>
        <time>2020-10-13T12:45:49.000Z</time>
      </trkpt>
      <trkpt lat="45.19499" lon="5.87667">
        <ele>877.51</ele>
        <time>2020-10-13T12:45:54.000Z</time>
      </trkpt>
      <trkpt lat="45.19473" lon="5.87666">
        <ele>878.76</ele>
        <time>2020-10-13T12:45:59.000Z</time>
      </trkpt>
      <trkpt lat="45.19446" lon="5.87664">
        <ele>880.9</ele>
        <time>2020-10-13T12:46:04.000Z</time>
      </trkpt>
      <trkpt lat="45.1942" lon="5.87662">
        <ele>883.5</ele>
        <time>2020-10-13T12:46:09.000Z</time>
      </trkpt>
      <trkpt lat="45.19394" lon="5.87665">
        <ele>885.52</ele>
        <time>2020-10-13T12:46:14.000Z</time>
      </trkpt>
      <trkpt lat="45.19371" lon="5.87685">
        <ele>884.38</ele>
        <time>2020-10-13T12:46:19.000Z</time>
      </trkpt>
      <trkpt lat="45.19356" lon="5.87716">
        <ele>888.22</ele>
        <time>2020-10-13T12:46:24.000Z</time>
      </trkpt>
      <trkpt lat="45.19349" lon="5.87758">
        <ele>890.51</ele>
        <time>2020-10-13T12:46:29.000Z</time>
      </trkpt>
      <trkpt lat="45.19346" lon="5.87799">
        <ele>887.85</ele>
        <time>2020-10-13T12:46:34.000Z</time>
      </trkpt>
      <trkpt lat="45.19346" lon="5.87848">
        <ele>886.73</ele>
        <time>2020-10-13T12:46:39.000Z</time>
      </trkpt>
      <trkpt lat="45.19352" lon="5.87898">
        <ele>886.59</ele>
        <time>2020-10-13T12:46:44.000Z</time>
      </trkpt>
      <trkpt lat="45.19368" lon="5.87943">
        <ele>884.86</ele>
        <time>2020-10-13T12:46:49.000Z</time>
      </trkpt>
      <trkpt lat="45.19398" lon="5.87983">
        <ele>883.38</ele>
        <time>2020-10-13T12:46:54.000Z</time>
      </trkpt>
      <trkpt lat="45.19425" lon="5.88032">
        <ele>880.84</ele>
        <time>2020-10-13T12:46:59.000Z</time>
      </trkpt>
      <trkpt lat="45.19439" lon="5.88099">
        <ele>878.28</ele>
        <time>2020-10-13T12:47:04.000Z</time>
      </trkpt>
      <trkpt lat="45.19428" lon="5.88165">
        <ele>875.52</ele>
        <time>2020-10-13T12:47:09.000Z</time>
      </trkpt>
      <trkpt lat="45.19401" lon="5.8822">
        <ele>872.97</ele>
        <time>2020-10-13T12:47:14.000Z</time>
      </trkpt>
      <trkpt lat="45.19404" lon="5.8829">
        <ele>871.57</ele>
        <time>2020-10-13T12:47:19.000Z</time>
      </trkpt>
      <trkpt lat="45.19381" lon="5.88365">
        <ele>865.74</ele>
        <time>2020-10-13T12:47:24.000Z</time>
      </trkpt>
      <trkpt lat="45.19342" lon="5.88429">
        <ele>860.61</ele>
        <time>2020-10-13T12:47:29.000Z</time>
      </trkpt>
      <trkpt lat="45.19275" lon="5.88451">
        <ele>856.56</ele>
        <time>2020-10-13T12:47:34.000Z</time>
      </trkpt>
      <trkpt lat="45.19205" lon="5.88471">
        <ele>851.79</ele>
        <time>2020-10-13T12:47:39.000Z</time>
      </trkpt>
      <trkpt lat="45.19131" lon="5.88457">
        <ele>850.32</ele>
        <time>2020-10-13T12:47:44.000Z</time>
      </trkpt>
      <trkpt lat="45.19057" lon="5.88445">
        <ele>846.1</ele>
        <time>2020-10-13T12:47:49.000Z</time>
      </trkpt>
      <trkpt lat="45.18976" lon="5.88456">
        <ele>844.88</ele>
        <time>2020-10-13T12:47:54.000Z</time>
      </trkpt>
      <trkpt lat="45.18901" lon="5.88469">
        <ele>840.81</ele>
        <time>2020-10-13T12:47:59.000Z</time>
      </trkpt>
      <trkpt lat="45.18837" lon="5.88472">
        <ele>833.1</ele>
        <time>2020-10-13T12:48:04.000Z</time>
      </trkpt>
      <trkpt lat="45.18791" lon="5.88416">
        <ele>836.18</ele>
        <time>2020-10-13T12:48:09.000Z</time>
      </trkpt>
      <trkpt lat="45.18761" lon="5.88359">
        <ele>831.93</ele>
        <time>2020-10-13T12:48:14.000Z</time>
      </trkpt>
      <trkpt lat="45.18731" lon="5.88307">
        <ele>828.09</ele>
        <time>2020-10-13T12:48:19.000Z</time>
      </trkpt>
      <trkpt lat="45.18707" lon="5.8825">
        <ele>829.4</ele>
        <time>2020-10-13T12:48:24.000Z</time>
      </trkpt>
      <trkpt lat="45.18714" lon="5.88181">
        <ele>826.2</ele>
        <time>2020-10-13T12:48:29.000Z</time>
      </trkpt>
      <trkpt lat="45.1872" lon="5.88113">
        <ele>823.38</ele>
        <time>2020-10-13T12:48:34.000Z</time>
      </trkpt>
      <trkpt lat="45.18706" lon="5.88034">
        <ele>819.54</ele>
        <time>2020-10-13T12:48:39.000Z</time>
      </trkpt>
      <trkpt lat="45.18681" lon="5.87949">
        <ele>809.74</ele>
        <time>2020-10-13T12:48:44.000Z</time>
      </trkpt>
      <trkpt lat="45.18631" lon="5.87883">
        <ele>801.11</ele>
        <time>2020-10-13T12:48:49.000Z</time>
      </trkpt>
      <trkpt lat="45.18564" lon="5.87841">
        <ele>798.95</ele>
        <time>2020-10-13T12:48:54.000Z</time>
      </trkpt>
      <trkpt lat="45.18489" lon="5.87795">
        <ele>798.28</ele>
        <time>2020-10-13T12:48:59.000Z</time>
      </trkpt>
      <trkpt lat="45.18415" lon="5.87813">
        <ele>789.69</ele>
        <time>2020-10-13T12:49:04.000Z</time>
      </trkpt>
      <trkpt lat="45.18347" lon="5.8788">
        <ele>784.21</ele>
        <time>2020-10-13T12:49:09.000Z</time>
      </trkpt>
      <trkpt lat="45.18283" lon="5.87964">
        <ele>772.35</ele>
        <time>2020-10-13T12:49:14.000Z</time>
      </trkpt>
      <trkpt lat="45.18248" lon="5.88018">
        <ele>764.51</ele>
        <time>2020-10-13T12:49:19.000Z</time>
      </trkpt>
      <trkpt lat="45.18238" lon="5.87998">
        <ele>759.47</ele>
        <time>2020-10-13T12:49:24.000Z</time>
      </trkpt>
      <trkpt lat="45.18251" lon="5.87921">
        <ele>753.21</ele>
        <time>2020-10-13T12:49:29.000Z</time>
      </trkpt>
      <trkpt lat="45.18262" lon="5.8784">
        <ele>746.68</ele>
        <time>2020-10-13T12:49:34.000Z</time>
      </trkpt>
      <trkpt lat="45.1828" lon="5.87754">
        <ele>739.62</ele>
        <time>2020-10-13T12:49:39.000Z</time>
      </trkpt>
      <trkpt lat="45.18295" lon="5.87702">
        <ele>732.98</ele>
        <time>2020-10-13T12:49:44.000Z</time>
      </trkpt>
      <trkpt lat="45.18298" lon="5.87675">
        <ele>725.8</ele>
        <time>2020-10-13T12:49:49.000Z</time>
      </trkpt>
      <trkpt lat="45.1831" lon="5.87635">
        <ele>717.57</ele>
        <time>2020-10-13T12:49:54.000Z</time>
      </trkpt>
      <trkpt lat="45.18325" lon="5.87584">
        <ele>716.23</ele>
        <time>2020-10-13T12:49:59.000Z</time>
      </trkpt>
      <trkpt lat="45.18339" lon="5.87541">
        <ele>708.57</ele>
        <time>2020-10-13T12:50:04.000Z</time>
      </trkpt>
      <trkpt lat="45.18349" lon="5.875">
        <ele>704</ele>
        <time>2020-10-13T12:50:09.000Z</time>
      </trkpt>
      <trkpt lat="45.18363" lon="5.87463">
        <ele>702.67</ele>
        <time>2020-10-13T12:50:14.000Z</time>
      </trkpt>
    </trkseg>
  </trk>
</gpx>